Observation data for Goodnight on 01/19/2019      Previous  Date  Next       Current Mesonet Observations  Soil Data  Daily Summary Page  Observations in Plain Language
KGO1 190600Z 34024G31KT M00/M02 A30 RMK A01 T10041022  RH  087%=      5-min Rain = 0
KGO1 190601Z 34025G37KT M00/M02 A3001 RMK A01 T10041022  RH  087%=      5-min Rain = 0
KGO1 190602Z 34031G38KT M00/M02 A3001 RMK A01 T10031022  RH  087%=      5-min Rain = 0
KGO1 190603Z 34027G32KT M00/M02 A3001 RMK A01 T10031022  RH  087%=      5-min Rain = 0
KGO1 190604Z 34027G32KT M00/M02 A3001 RMK A01 T10031022  RH  087%=      5-min Rain = 0
KGO1 190605Z 34031G37KT M00/M02 A3001 RMK A01 T10031021  RH  087%=      5-min Rain = 0
KGO1 190606Z 35028G34KT M00/M02 A3001 RMK A01 T10031021  RH  088%=      5-min Rain = 0
KGO1 190607Z 34027G32KT M00/M02 A3001 RMK A01 T10031021  RH  088%=      5-min Rain = 0
KGO1 190608Z 34027G33KT M00/M02 A3001 RMK A01 T10031021  RH  088%=      5-min Rain = 0
KGO1 190609Z 34028G36KT M00/M02 A3001 RMK A01 T10031021  RH  088%=      5-min Rain = 0
KGO1 190610Z 34030G36KT M00/M02 A3001 RMK A01 T10031021  RH  087%=      5-min Rain = 0
KGO1 190611Z 35029KT M00/M02 A3001 RMK A01 T10021022  RH  087%=      5-min Rain = 0
KGO1 190612Z 34024G31KT M00/M02 A3001 RMK A01 T10021021  RH  087%=      5-min Rain = 0
KGO1 190613Z 34021G26KT M00/M02 A3001 RMK A01 T10021021  RH  087%=      5-min Rain = 0
KGO1 190614Z 34029G36KT M00/M02 A3001 RMK A01 T10021021  RH  087%=      5-min Rain = 0
KGO1 190615Z 34027G35KT M00/M02 A3002 RMK A01 T10031021  RH  087%=      5-min Rain = 0
KGO1 190616Z 35026G31KT M00/M02 A3002 RMK A01 T10021020  RH  088%=      5-min Rain = 0
KGO1 190617Z 34025G31KT M00/M02 A3002 RMK A01 T10021020  RH  088%=      5-min Rain = 0
KGO1 190618Z 34028KT M00/M02 A3002 RMK A01 T10021019  RH  088%=      5-min Rain = 0
KGO1 190619Z 34026KT M00/M02 A3002 RMK A01 T10021019  RH  088%=      5-min Rain = 0
KGO1 190620Z 34023KT M00/M02 A3002 RMK A01 T10021019  RH  089%=      5-min Rain = 0
KGO1 190621Z 34025G31KT M00/M02 A3002 RMK A01 T10021019  RH  089%=      5-min Rain = 0
KGO1 190622Z 34026G34KT M00/M02 A3002 RMK A01 T10031019  RH  089%=      5-min Rain = 0
KGO1 190623Z 34025KT M00/M02 A3002 RMK A01 T10031019  RH  089%=      5-min Rain = 0
KGO1 190624Z 34025G30KT M00/M02 A3002 RMK A01 T10031019  RH  089%=      5-min Rain = 0
KGO1 190625Z 34023G28KT M00/M02 A3002 RMK A01 T10031018  RH  089%=      5-min Rain = 0
KGO1 190626Z 34025G33KT M00/M02 A3002 RMK A01 T10031018  RH  089%=      5-min Rain = 0
KGO1 190627Z 34022G27KT M00/M02 A3003 RMK A01 T10031018  RH  089%=      5-min Rain = 0
KGO1 190628Z 34023G32KT M00/M02 A3003 RMK A01 T10031018  RH  089%=      5-min Rain = 0
KGO1 190629Z 34028KT M00/M02 A3002 RMK A01 T10031018  RH  090%=      5-min Rain = 0
KGO1 190630Z 34024KT M00/M02 A3003 RMK A01 T10031018  RH  090%=      5-min Rain = 0
KGO1 190631Z 34021G26KT M00/M02 A3003 RMK A01 T10031018  RH  090%=      5-min Rain = 0
KGO1 190632Z 34022G28KT M00/M02 A3003 RMK A01 T10031017  RH  090%=      5-min Rain = 0
KGO1 190633Z 34024G30KT M00/M02 A3003 RMK A01 T10031017  RH  090%=      5-min Rain = 0
KGO1 190634Z 34025G32KT M00/M02 A3003 RMK A01 T10031017  RH  090%=      5-min Rain = 0
KGO1 190635Z 34026KT M00/M02 A3003 RMK A01 T10031017  RH  090%=      5-min Rain = 0
KGO1 190636Z 34024KT M00/M02 A3003 RMK A01 T10031017  RH  090%=      5-min Rain = 0
KGO1 190637Z 34023G29KT M00/M02 A3003 RMK A01 T10031017  RH  090%=      5-min Rain = 0
KGO1 190638Z 34027G34KT M00/M02 A3003 RMK A01 T10031017  RH  090%=      5-min Rain = 0
KGO1 190639Z 34024KT M00/M02 A3003 RMK A01 T10031017  RH  090%=      5-min Rain = 0
KGO1 190640Z 34025KT M00/M02 A3003 RMK A01 T10031017  RH  091%=      5-min Rain = 0
KGO1 190641Z 34024KT M00/M02 A3003 RMK A01 T10031016  RH  091%=      5-min Rain = 0
KGO1 190642Z 34024G30KT M00/M02 A3003 RMK A01 T10031016  RH  091%=      5-min Rain = 0
KGO1 190643Z 34026G34KT M00/M02 A3003 RMK A01 T10031016  RH  091%=      5-min Rain = 0
KGO1 190644Z 34027G33KT M00/M02 A3003 RMK A01 T10031016  RH  091%=      5-min Rain = 0
KGO1 190645Z 34025KT M00/M02 A3003 RMK A01 T10031016  RH  091%=      5-min Rain = 0
KGO1 190646Z 34025G31KT M00/M02 A3003 RMK A01 T10031016  RH  091%=      5-min Rain = 0
KGO1 190647Z 34022G31KT M00/M02 A3003 RMK A01 T10031016  RH  091%=      5-min Rain = 0
KGO1 190648Z 34021KT M00/M02 A3003 RMK A01 T10031016  RH  091%=      5-min Rain = 0
KGO1 190649Z 35020G29KT M00/M02 A3004 RMK A01 T10031015  RH  091%=      5-min Rain = 0
KGO1 190650Z 34022KT M00/M02 A3004 RMK A01 T10031015  RH  091%=      5-min Rain = 0
KGO1 190651Z 34021KT M00/M02 A3004 RMK A01 T10031015  RH  092%=      5-min Rain = 0
KGO1 190652Z 34022KT M00/M02 A3003 RMK A01 T10031015  RH  092%=      5-min Rain = 0
KGO1 190653Z 34022KT M00/M02 A3004 RMK A01 T10031015  RH  092%=      5-min Rain = 0
KGO1 190654Z 34021KT M00/M02 A3004 RMK A01 T10031015  RH  092%=      5-min Rain = 0
KGO1 190655Z 35021KT M00/M02 A3004 RMK A01 T10031015  RH  092%=      5-min Rain = 0
KGO1 190656Z 34021KT M00/M01 A3004 RMK A01 T10021014  RH  092%=      5-min Rain = 0
KGO1 190657Z 34019G26KT M00/M01 A3004 RMK A01 T10021014  RH  092%=      5-min Rain = 0
KGO1 190658Z 33021KT M00/M01 A3004 RMK A01 T10021013  RH  092%=      5-min Rain = 0
KGO1 190659Z 34017KT M00/M01 A3004 RMK A01 T10021014  RH  092%=      5-min Rain = 0
KGO1 190700Z 33019G25KT M00/M01 A3004 RMK A01 T10021014  RH  092%=      5-min Rain = 0
KGO1 190701Z 34021G26KT M00/M01 A3004 RMK A01 T10021014  RH  091%=      5-min Rain = 0
KGO1 190702Z 34031G37KT M00/M02 A3004 RMK A01 T10011016  RH  090%=      5-min Rain = 0
KGO1 190703Z 34034G41KT M00/M02 A3004 RMK A01 T10011020  RH  087%=      5-min Rain = 0
KGO1 190704Z 34031G39KT M00/M02 A3004 RMK A01 T10011023  RH  085%=      5-min Rain = 0
KGO1 190705Z 34034G40KT M00/M03 A3003 RMK A01 T10011025  RH  084%=      5-min Rain = 0
KGO1 190706Z 34030G39KT M00/M03 A3004 RMK A01 T10011027  RH  083%=      5-min Rain = 0
KGO1 190707Z 34030G39KT M00/M03 A3004 RMK A01 T10021029  RH  082%=      5-min Rain = 0
KGO1 190708Z 34030G39KT M00/M03 A3004 RMK A01 T10021030  RH  082%=      5-min Rain = 0
KGO1 190709Z 34030KT M00/M03 A3004 RMK A01 T10021032  RH  081%=      5-min Rain = 0
KGO1 190710Z 34032G40KT M00/M03 A3004 RMK A01 T10021032  RH  080%=      5-min Rain = 0
KGO1 190711Z 34028KT M00/M03 A3004 RMK A01 T10031032  RH  081%=      5-min Rain = 0
KGO1 190712Z 34029G35KT M00/M03 A3004 RMK A01 T10041032  RH  081%=      5-min Rain = 0
KGO1 190713Z 34029G34KT M00/M03 A3004 RMK A01 T10041032  RH  081%=      5-min Rain = 0
KGO1 190714Z 34029G35KT M00/M03 A3004 RMK A01 T10041033  RH  081%=      5-min Rain = 0
KGO1 190715Z 34025G30KT M00/M03 A3004 RMK A01 T10041032  RH  081%=      5-min Rain = 0
KGO1 190716Z 34021G31KT M00/M03 A3004 RMK A01 T10041031  RH  082%=      5-min Rain = 0
KGO1 190717Z 34027G34KT M01/M03 A3004 RMK A01 T10051031  RH  083%=      5-min Rain = 0
KGO1 190718Z 34025G30KT M01/M03 A3004 RMK A01 T10051030  RH  083%=      5-min Rain = 0
KGO1 190719Z 34025G30KT M01/M03 A3004 RMK A01 T10061030  RH  084%=      5-min Rain = 0
KGO1 190720Z 34026G33KT M01/M03 A3004 RMK A01 T10061029  RH  084%=      5-min Rain = 0
KGO1 190721Z 34021G27KT M01/M03 A3004 RMK A01 T10061029  RH  085%=      5-min Rain = 0
KGO1 190722Z 34020KT M01/M03 A3004 RMK A01 T10061028  RH  085%=      5-min Rain = 0
KGO1 190723Z 33024G35KT M01/M03 A3004 RMK A01 T10061027  RH  086%=      5-min Rain = 0
KGO1 190724Z 34031G36KT M01/M03 A3004 RMK A01 T10061028  RH  085%=      5-min Rain = 0
KGO1 190725Z 33030G36KT M01/M03 A3004 RMK A01 T10061030  RH  084%=      5-min Rain = 0
KGO1 190726Z 33026G32KT M01/M03 A3004 RMK A01 T10061031  RH  083%=      5-min Rain = 0
KGO1 190727Z 34029G35KT M01/M03 A3004 RMK A01 T10051031  RH  083%=      5-min Rain = 0
KGO1 190728Z 33023G30KT M01/M03 A3004 RMK A01 T10061032  RH  082%=      5-min Rain = 0
KGO1 190729Z 34030G35KT M01/M03 A3004 RMK A01 T10071033  RH  082%=      5-min Rain = 0
KGO1 190730Z 34031G37KT M01/M03 A3004 RMK A01 T10071034  RH  082%=      5-min Rain = 0
KGO1 190731Z 34029KT M01/M04 A3004 RMK A01 T10081035  RH  082%=      5-min Rain = 0
KGO1 190732Z 34026G31KT M01/M04 A3005 RMK A01 T10081036  RH  082%=      5-min Rain = 0
KGO1 190733Z 34027G36KT M01/M04 A3004 RMK A01 T10081036  RH  082%=      5-min Rain = 0
KGO1 190734Z 34028G33KT M01/M04 A3005 RMK A01 T10091036  RH  082%=      5-min Rain = 0
KGO1 190735Z 34028G40KT M01/M04 A3004 RMK A01 T10091037  RH  081%=      5-min Rain = 0
KGO1 190736Z 34028KT M01/M04 A3005 RMK A01 T10091038  RH  081%=      5-min Rain = 0
KGO1 190737Z 34030G35KT M01/M04 A3005 RMK A01 T10091038  RH  081%=      5-min Rain = 0
KGO1 190738Z 34025G31KT M01/M04 A3005 RMK A01 T10091038  RH  081%=      5-min Rain = 0
KGO1 190739Z 34027KT M01/M04 A3005 RMK A01 T10091038  RH  081%=      5-min Rain = 0
KGO1 190740Z 34025G30KT M01/M04 A3005 RMK A01 T10091037  RH  082%=      5-min Rain = 0
KGO1 190741Z 34025G34KT M01/M04 A3005 RMK A01 T10091036  RH  082%=      5-min Rain = 0
KGO1 190742Z 34024G30KT M01/M04 A3005 RMK A01 T10101037  RH  082%=      5-min Rain = 0
KGO1 190743Z 34024G30KT M01/M04 A3006 RMK A01 T10101038  RH  081%=      5-min Rain = 0
KGO1 190744Z 34028G34KT M01/M04 A3006 RMK A01 T10111040  RH  081%=      5-min Rain = 0
KGO1 190745Z 34027G33KT M01/M04 A3006 RMK A01 T10111041  RH  080%=      5-min Rain = 0
KGO1 190746Z 34028G33KT M01/M04 A3006 RMK A01 T10111041  RH  080%=      5-min Rain = 0
KGO1 190747Z 34030G38KT M01/M04 A3006 RMK A01 T10111042  RH  080%=      5-min Rain = 0
KGO1 190748Z 34024G31KT M01/M04 A3006 RMK A01 T10111042  RH  080%=      5-min Rain = 0
KGO1 190749Z 34028G34KT M01/M04 A3006 RMK A01 T10121042  RH  080%=      5-min Rain = 0
KGO1 190750Z 34027KT M01/M04 A3006 RMK A01 T10121042  RH  080%=      5-min Rain = 0
KGO1 190751Z 34025KT M01/M04 A3006 RMK A01 T10121042  RH  080%=      5-min Rain = 0
KGO1 190752Z 34029G37KT M01/M04 A3006 RMK A01 T10121042  RH  080%=      5-min Rain = 0
KGO1 190753Z 34029G34KT M01/M04 A3006 RMK A01 T10121042  RH  080%=      5-min Rain = 0
KGO1 190754Z 34028G33KT M01/M04 A3006 RMK A01 T10121043  RH  080%=      5-min Rain = 0
KGO1 190755Z 34031G39KT M01/M04 A3006 RMK A01 T10131043  RH  080%=      5-min Rain = 0
KGO1 190756Z 34024KT M01/M04 A3007 RMK A01 T10131043  RH  080%=      5-min Rain = 0
KGO1 190757Z 34025G30KT M01/M04 A3007 RMK A01 T10131043  RH  080%=      5-min Rain = 0
KGO1 190758Z 34025KT M01/M04 A3007 RMK A01 T10131042  RH  081%=      5-min Rain = 0
KGO1 190759Z 34025G32KT M01/M04 A3007 RMK A01 T10141042  RH  081%=      5-min Rain = 0
KGO1 190800Z 34025G32KT M01/M04 A3007 RMK A01 T10141042  RH  081%=      5-min Rain = 0
KGO1 190801Z 34026G31KT M01/M04 A3007 RMK A01 T10141042  RH  081%=      5-min Rain = 0
KGO1 190802Z 34028KT M01/M04 A3007 RMK A01 T10141042  RH  081%=      5-min Rain = 0
KGO1 190803Z 34025G33KT M01/M04 A3007 RMK A01 T10141043  RH  081%=      5-min Rain = 0
KGO1 190804Z 34024G31KT M01/M04 A3007 RMK A01 T10141043  RH  081%=      5-min Rain = 0
KGO1 190805Z 34029G35KT M02/M04 A3007 RMK A01 T10151044  RH  081%=      5-min Rain = 0
KGO1 190806Z 34028G35KT M02/M05 A3007 RMK A01 T10151045  RH  080%=      5-min Rain = 0
KGO1 190807Z 34026G31KT M02/M05 A3007 RMK A01 T10151045  RH  080%=      5-min Rain = 0
KGO1 190808Z 34029G36KT M02/M05 A3007 RMK A01 T10151045  RH  080%=      5-min Rain = 0
KGO1 190809Z 34024KT M02/M05 A3007 RMK A01 T10161046  RH  080%=      5-min Rain = 0
KGO1 190810Z 33027KT M02/M05 A3007 RMK A01 T10161045  RH  080%=      5-min Rain = 0
KGO1 190811Z 34023G28KT M02/M05 A3007 RMK A01 T10161045  RH  081%=      5-min Rain = 0
KGO1 190812Z 34029G34KT M02/M05 A3007 RMK A01 T10161045  RH  081%=      5-min Rain = 0
KGO1 190813Z 34028G36KT M02/M05 A3007 RMK A01 T10161045  RH  081%=      5-min Rain = 0
KGO1 190814Z 34028G33KT M02/M05 A3007 RMK A01 T10161045  RH  081%=      5-min Rain = 0
KGO1 190815Z 34022KT M02/M05 A3008 RMK A01 T10161045  RH  081%=      5-min Rain = 0
KGO1 190816Z 34027KT M02/M05 A3008 RMK A01 T10161045  RH  081%=      5-min Rain = 0
KGO1 190817Z 34025KT M02/M05 A3008 RMK A01 T10171045  RH  081%=      5-min Rain = 0
KGO1 190818Z 33025G31KT M02/M04 A3007 RMK A01 T10161044  RH  081%=      5-min Rain = 0
KGO1 190819Z 34022G28KT M02/M05 A3008 RMK A01 T10171045  RH  081%=      5-min Rain = 0
KGO1 190820Z 34022KT M02/M04 A3008 RMK A01 T10171044  RH  082%=      5-min Rain = 0
KGO1 190821Z 34022G29KT M02/M04 A3008 RMK A01 T10171044  RH  082%=      5-min Rain = 0
KGO1 190822Z 33024G32KT M02/M04 A3008 RMK A01 T10171044  RH  082%=      5-min Rain = 0
KGO1 190823Z 34028G34KT M02/M05 A3008 RMK A01 T10171045  RH  081%=      5-min Rain = 0
KGO1 190824Z 34026G34KT M02/M05 A3008 RMK A01 T10171045  RH  081%=      5-min Rain = 0
KGO1 190825Z 34021G26KT M02/M05 A3008 RMK A01 T10171045  RH  081%=      5-min Rain = 0
KGO1 190826Z 34024G32KT M02/M05 A3008 RMK A01 T10171046  RH  081%=      5-min Rain = 0
KGO1 190827Z 34024KT M02/M05 A3008 RMK A01 T10181046  RH  081%=      5-min Rain = 0
KGO1 190828Z 34024G32KT M02/M05 A3008 RMK A01 T10171046  RH  081%=      5-min Rain = 0
KGO1 190829Z 34027G34KT M02/M05 A3008 RMK A01 T10181047  RH  081%=      5-min Rain = 0
KGO1 190830Z 34029G35KT M02/M05 A3008 RMK A01 T10181047  RH  080%=      5-min Rain = 0
KGO1 190831Z 34028G34KT M02/M05 A3008 RMK A01 T10181048  RH  080%=      5-min Rain = 0
KGO1 190832Z 34027G34KT M02/M05 A3009 RMK A01 T10181047  RH  080%=      5-min Rain = 0
KGO1 190833Z 34025G32KT M02/M05 A3009 RMK A01 T10181047  RH  081%=      5-min Rain = 0
KGO1 190834Z 34020G26KT M02/M05 A3009 RMK A01 T10181047  RH  081%=      5-min Rain = 0
KGO1 190835Z 34021G26KT M02/M05 A3009 RMK A01 T10191047  RH  081%=      5-min Rain = 0
KGO1 190836Z 33022G30KT M02/M05 A3009 RMK A01 T10191046  RH  082%=      5-min Rain = 0
KGO1 190837Z 33024G29KT M02/M05 A3009 RMK A01 T10201046  RH  082%=      5-min Rain = 0
KGO1 190838Z 33027G34KT M02/M05 A3009 RMK A01 T10201047  RH  082%=      5-min Rain = 0
KGO1 190839Z 33028G38KT M02/M05 A3009 RMK A01 T10211049  RH  081%=      5-min Rain = 0
KGO1 190840Z 33030G37KT M02/M05 A3009 RMK A01 T10221050  RH  081%=      5-min Rain = 0
KGO1 190841Z 33025KT M02/M05 A3009 RMK A01 T10221051  RH  080%=      5-min Rain = 0
KGO1 190842Z 33025G30KT M02/M05 A3009 RMK A01 T10231052  RH  081%=      5-min Rain = 0
KGO1 190843Z 34026G32KT M02/M05 A3009 RMK A01 T10241052  RH  081%=      5-min Rain = 0
KGO1 190844Z 33027G32KT M02/M05 A3009 RMK A01 T10241052  RH  081%=      5-min Rain = 0
KGO1 190845Z 33027KT M03/M05 A3009 RMK A01 T10251053  RH  081%=      5-min Rain = 0
KGO1 190846Z 33027G34KT M03/M05 A3009 RMK A01 T10251053  RH  081%=      5-min Rain = 0
KGO1 190847Z 33028KT M03/M05 A3009 RMK A01 T10251054  RH  081%=      5-min Rain = 0
KGO1 190848Z 34028G34KT M03/M05 A3009 RMK A01 T10251054  RH  081%=      5-min Rain = 0
KGO1 190849Z 33030G37KT M03/M05 A3009 RMK A01 T10261054  RH  081%=      5-min Rain = 0
KGO1 190850Z 33025G33KT M03/M05 A3009 RMK A01 T10261054  RH  081%=      5-min Rain = 0
KGO1 190851Z 33025G31KT M03/M06 A301 RMK A01 T10261055  RH  081%=      5-min Rain = 0
KGO1 190852Z 34026G33KT M03/M06 A301 RMK A01 T10271055  RH  081%=      5-min Rain = 0
KGO1 190853Z 33025G31KT M03/M06 A301 RMK A01 T10271055  RH  081%=      5-min Rain = 0
KGO1 190854Z 33025G30KT M03/M05 A301 RMK A01 T10271054  RH  081%=      5-min Rain = 0
KGO1 190855Z 34025KT M03/M05 A301 RMK A01 T10271054  RH  081%=      5-min Rain = 0
KGO1 190856Z 34026G33KT M03/M06 A301 RMK A01 T10271055  RH  082%=      5-min Rain = 0
KGO1 190857Z 34024KT M03/M06 A301 RMK A01 T10281055  RH  082%=      5-min Rain = 0
KGO1 190858Z 34028G34KT M03/M06 A301 RMK A01 T10281055  RH  082%=      5-min Rain = 0
KGO1 190859Z 34027G38KT M03/M06 A3009 RMK A01 T10271055  RH  081%=      5-min Rain = 0
KGO1 190900Z 34025KT M03/M06 A301 RMK A01 T10271055  RH  081%=      5-min Rain = 0
KGO1 190901Z 34025G31KT M03/M06 A301 RMK A01 T10271055  RH  081%=      5-min Rain = 0
KGO1 190902Z 34024G30KT M03/M06 A301 RMK A01 T10271055  RH  081%=      5-min Rain = 0
KGO1 190903Z 34024G29KT M03/M06 A301 RMK A01 T10281055  RH  081%=      5-min Rain = 0
KGO1 190904Z 34023KT M03/M06 A301 RMK A01 T10281055  RH  081%=      5-min Rain = 0
KGO1 190905Z 34026KT M03/M06 A301 RMK A01 T10291056  RH  082%=      5-min Rain = 0
KGO1 190906Z 34026G34KT M03/M06 A301 RMK A01 T10281056  RH  082%=      5-min Rain = 0
KGO1 190907Z 34023G30KT M03/M06 A301 RMK A01 T10291056  RH  081%=      5-min Rain = 0
KGO1 190908Z 34020KT M03/M06 A301 RMK A01 T10291056  RH  082%=      5-min Rain = 0
KGO1 190909Z 34025G34KT M03/M06 A301 RMK A01 T10291056  RH  082%=      5-min Rain = 0
KGO1 190910Z 34027G32KT M03/M06 A301 RMK A01 T10291056  RH  082%=      5-min Rain = 0
KGO1 190911Z 34025G30KT M03/M06 A301 RMK A01 T10291056  RH  081%=      5-min Rain = 0
KGO1 190912Z 34024G32KT M03/M06 A301 RMK A01 T10281056  RH  081%=      5-min Rain = 0
KGO1 190913Z 34025KT M03/M06 A301 RMK A01 T10291056  RH  081%=      5-min Rain = 0
KGO1 190914Z 34024G29KT M03/M06 A301 RMK A01 T10291057  RH  081%=      5-min Rain = 0
KGO1 190915Z 34026KT M03/M06 A301 RMK A01 T10291056  RH  081%=      5-min Rain = 0
KGO1 190916Z 34024G31KT M03/M06 A301 RMK A01 T10291056  RH  081%=      5-min Rain = 0
KGO1 190917Z 34027G35KT M03/M06 A301 RMK A01 T10291057  RH  081%=      5-min Rain = 0
KGO1 190918Z 34027KT M03/M06 A301 RMK A01 T10301057  RH  081%=      5-min Rain = 0
KGO1 190919Z 34027G33KT M03/M06 A301 RMK A01 T10291057  RH  082%=      5-min Rain = 0
KGO1 190920Z 34025G31KT M03/M06 A301 RMK A01 T10291056  RH  082%=      5-min Rain = 0
KGO1 190921Z 34024KT M03/M06 A301 RMK A01 T10301057  RH  081%=      5-min Rain = 0
KGO1 190922Z 34026G33KT M03/M06 A301 RMK A01 T10301057  RH  082%=      5-min Rain = 0
KGO1 190923Z 34027G35KT M03/M06 A301 RMK A01 T10301057  RH  081%=      5-min Rain = 0
KGO1 190924Z 34024G32KT M03/M06 A301 RMK A01 T10311058  RH  081%=      5-min Rain = 0
KGO1 190925Z 34030G37KT M03/M06 A301 RMK A01 T10311058  RH  081%=      5-min Rain = 0
KGO1 190926Z 34027G34KT M03/M06 A301 RMK A01 T10311059  RH  081%=      5-min Rain = 0
KGO1 190927Z 34027KT M03/M06 A301 RMK A01 T10311059  RH  081%=      5-min Rain = 0
KGO1 190928Z 34026G31KT M03/M06 A301 RMK A01 T10311059  RH  081%=      5-min Rain = 0
KGO1 190929Z 34027KT M03/M06 A301 RMK A01 T10311059  RH  081%=      5-min Rain = 0
KGO1 190930Z 34025G33KT M03/M06 A301 RMK A01 T10311059  RH  081%=      5-min Rain = 0
KGO1 190931Z 34026G36KT M03/M06 A301 RMK A01 T10311059  RH  081%=      5-min Rain = 0
KGO1 190932Z 34024G30KT M03/M06 A301 RMK A01 T10311059  RH  081%=      5-min Rain = 0
KGO1 190933Z 34027G32KT M03/M06 A301 RMK A01 T10321059  RH  082%=      5-min Rain = 0
KGO1 190934Z 34023G28KT M03/M06 A301 RMK A01 T10321059  RH  082%=      5-min Rain = 0
KGO1 190935Z 34026G32KT M03/M06 A301 RMK A01 T10321059  RH  082%=      5-min Rain = 0
KGO1 190936Z 34027G32KT M03/M06 A301 RMK A01 T10321059  RH  082%=      5-min Rain = 0
KGO1 190937Z 34025G30KT M03/M06 A301 RMK A01 T10321058  RH  082%=      5-min Rain = 0
KGO1 190938Z 34024G30KT M03/M06 A301 RMK A01 T10311058  RH  082%=      5-min Rain = 0
KGO1 190939Z 34025KT M03/M06 A301 RMK A01 T10311058  RH  082%=      5-min Rain = 0
KGO1 190940Z 34023G29KT M03/M06 A301 RMK A01 T10311058  RH  082%=      5-min Rain = 0
KGO1 190941Z 34025G30KT M03/M06 A301 RMK A01 T10311058  RH  082%=      5-min Rain = 0
KGO1 190942Z 34026G32KT M03/M06 A301 RMK A01 T10311058  RH  082%=      5-min Rain = 0
KGO1 190943Z 34023KT M03/M06 A3011 RMK A01 T10301057  RH  082%=      5-min Rain = 0
KGO1 190944Z 34024G33KT M03/M06 A3011 RMK A01 T10301057  RH  082%=      5-min Rain = 0
KGO1 190945Z 34025G30KT M03/M06 A3011 RMK A01 T10301057  RH  082%=      5-min Rain = 0
KGO1 190946Z 34023KT M03/M06 A3011 RMK A01 T10301057  RH  082%=      5-min Rain = 0
KGO1 190947Z 34025KT M03/M06 A3011 RMK A01 T10301057  RH  082%=      5-min Rain = 0
KGO1 190948Z 34027G33KT M03/M06 A3011 RMK A01 T10301057  RH  082%=      5-min Rain = 0
KGO1 190949Z 33024KT M03/M06 A3011 RMK A01 T10301057  RH  082%=      5-min Rain = 0
KGO1 190950Z 34023KT M03/M06 A3011 RMK A01 T10301057  RH  082%=      5-min Rain = 0
KGO1 190951Z 34021G28KT M03/M06 A3011 RMK A01 T10301056  RH  082%=      5-min Rain = 0
KGO1 190952Z 34025G31KT M03/M06 A3011 RMK A01 T10291056  RH  082%=      5-min Rain = 0
KGO1 190953Z 34020KT M03/M06 A3011 RMK A01 T10291056  RH  082%=      5-min Rain = 0
KGO1 190954Z 33023KT M03/M06 A3011 RMK A01 T10291056  RH  082%=      5-min Rain = 0
KGO1 190955Z 34024KT M03/M06 A3011 RMK A01 T10291056  RH  082%=      5-min Rain = 0
KGO1 190956Z 34023KT M03/M06 A3011 RMK A01 T10291056  RH  082%=      5-min Rain = 0
KGO1 190957Z 34024G30KT M03/M06 A3011 RMK A01 T10291056  RH  082%=      5-min Rain = 0
KGO1 190958Z 33024G29KT M03/M06 A3011 RMK A01 T10291056  RH  081%=      5-min Rain = 0
KGO1 190959Z 34022G28KT M03/M06 A3011 RMK A01 T10291056  RH  081%=      5-min Rain = 0
KGO1 191000Z 34023KT M03/M06 A3011 RMK A01 T10281056  RH  081%=      5-min Rain = 0
KGO1 191001Z 34025G31KT M03/M06 A3011 RMK A01 T10281056  RH  081%=      5-min Rain = 0
KGO1 191002Z 34021KT M03/M06 A3012 RMK A01 T10291056  RH  081%=      5-min Rain = 0
KGO1 191003Z 34020KT M03/M06 A3012 RMK A01 T10281056  RH  081%=      5-min Rain = 0
KGO1 191004Z 34023KT M03/M06 A3011 RMK A01 T10281056  RH  082%=      5-min Rain = 0
KGO1 191005Z 34020G25KT M03/M06 A3012 RMK A01 T10281055  RH  082%=      5-min Rain = 0
KGO1 191006Z 34022G27KT M03/M06 A3012 RMK A01 T10281055  RH  082%=      5-min Rain = 0
KGO1 191007Z 33022G27KT M03/M06 A3012 RMK A01 T10281055  RH  082%=      5-min Rain = 0
KGO1 191008Z 34021G28KT M03/M06 A3012 RMK A01 T10281056  RH  082%=      5-min Rain = 0
KGO1 191009Z 34019G25KT M03/M06 A3012 RMK A01 T10281056  RH  082%=      5-min Rain = 0
KGO1 191010Z 33021G26KT M03/M06 A3012 RMK A01 T10281055  RH  082%=      5-min Rain = 0
KGO1 191011Z 33022G30KT M03/M06 A3012 RMK A01 T10281055  RH  082%=      5-min Rain = 0
KGO1 191012Z 34020KT M03/M06 A3012 RMK A01 T10281055  RH  082%=      5-min Rain = 0
KGO1 191013Z 33019KT M03/M06 A3012 RMK A01 T10291055  RH  082%=      5-min Rain = 0
KGO1 191014Z 33020KT M03/M06 A3012 RMK A01 T10281055  RH  082%=      5-min Rain = 0
KGO1 191015Z 33021KT M03/M05 A3012 RMK A01 T10291054  RH  082%=      5-min Rain = 0
KGO1 191016Z 33023KT M03/M05 A3012 RMK A01 T10291054  RH  083%=      5-min Rain = 0
KGO1 191017Z 33019KT M03/M05 A3012 RMK A01 T10291054  RH  083%=      5-min Rain = 0
KGO1 191018Z 33019KT M03/M05 A3012 RMK A01 T10291054  RH  083%=      5-min Rain = 0
KGO1 191019Z 33021KT M03/M05 A3013 RMK A01 T10291053  RH  083%=      5-min Rain = 0
KGO1 191020Z 33019KT M03/M05 A3013 RMK A01 T10291053  RH  083%=      5-min Rain = 0
KGO1 191021Z 33018KT M03/M05 A3013 RMK A01 T10291053  RH  083%=      5-min Rain = 0
KGO1 191022Z 33017KT M03/M05 A3013 RMK A01 T10291053  RH  084%=      5-min Rain = 0
KGO1 191023Z 33017G22KT M03/M05 A3013 RMK A01 T10301053  RH  084%=      5-min Rain = 0
KGO1 191024Z 33020G26KT M03/M05 A3013 RMK A01 T10301053  RH  084%=      5-min Rain = 0
KGO1 191025Z 33020G25KT M03/M05 A3013 RMK A01 T10291052  RH  084%=      5-min Rain = 0
KGO1 191026Z 33018G23KT M03/M05 A3013 RMK A01 T10281051  RH  084%=      5-min Rain = 0
KGO1 191027Z 33019G24KT M03/M05 A3013 RMK A01 T10281051  RH  084%=      5-min Rain = 0
KGO1 191028Z 33019G25KT M03/M05 A3013 RMK A01 T10281051  RH  084%=      5-min Rain = 0
KGO1 191029Z 33022G27KT M03/M05 A3013 RMK A01 T10271051  RH  084%=      5-min Rain = 0
KGO1 191030Z 33018KT M03/M05 A3013 RMK A01 T10271050  RH  084%=      5-min Rain = 0
KGO1 191031Z 33019G24KT M03/M05 A3013 RMK A01 T10271051  RH  084%=      5-min Rain = 0
KGO1 191032Z 33019KT M03/M05 A3013 RMK A01 T10271051  RH  084%=      5-min Rain = 0
KGO1 191033Z 33022G27KT M03/M05 A3013 RMK A01 T10271051  RH  084%=      5-min Rain = 0
KGO1 191034Z 33021KT M03/M05 A3013 RMK A01 T10261050  RH  083%=      5-min Rain = 0
KGO1 191035Z 34021G30KT M03/M05 A3013 RMK A01 T10261050  RH  083%=      5-min Rain = 0
KGO1 191036Z 33023KT M03/M05 A3013 RMK A01 T10251050  RH  083%=      5-min Rain = 0
KGO1 191037Z 33021G26KT M03/M05 A3013 RMK A01 T10251050  RH  083%=      5-min Rain = 0
KGO1 191038Z 33019G26KT M03/M05 A3013 RMK A01 T10251050  RH  083%=      5-min Rain = 0
KGO1 191039Z 33020G25KT M03/M05 A3013 RMK A01 T10261050  RH  083%=      5-min Rain = 0
KGO1 191040Z 33020KT M03/M05 A3013 RMK A01 T10261050  RH  084%=      5-min Rain = 0
KGO1 191041Z 33024KT M03/M05 A3013 RMK A01 T10261050  RH  084%=      5-min Rain = 0
KGO1 191042Z 33022G27KT M03/M05 A3013 RMK A01 T10261050  RH  084%=      5-min Rain = 0
KGO1 191043Z 33025G31KT M03/M05 A3013 RMK A01 T10261050  RH  083%=      5-min Rain = 0
KGO1 191044Z 33025G30KT M03/M05 A3013 RMK A01 T10251050  RH  083%=      5-min Rain = 0
KGO1 191045Z 33023G28KT M03/M05 A3013 RMK A01 T10251050  RH  083%=      5-min Rain = 0
KGO1 191046Z 33020G25KT M03/M05 A3013 RMK A01 T10251050  RH  083%=      5-min Rain = 0
KGO1 191047Z 33019KT M03/M05 A3013 RMK A01 T10261050  RH  083%=      5-min Rain = 0
KGO1 191048Z 33024KT M03/M05 A3013 RMK A01 T10271050  RH  084%=      5-min Rain = 0
KGO1 191049Z 33022G27KT M03/M05 A3013 RMK A01 T10261050  RH  084%=      5-min Rain = 0
KGO1 191050Z 33021G26KT M03/M05 A3013 RMK A01 T10271050  RH  084%=      5-min Rain = 0
KGO1 191051Z 33020G26KT M03/M05 A3013 RMK A01 T10271050  RH  084%=      5-min Rain = 0
KGO1 191052Z 33020KT M03/M05 A3013 RMK A01 T10271050  RH  084%=      5-min Rain = 0
KGO1 191053Z 33021KT M03/M05 A3013 RMK A01 T10281050  RH  084%=      5-min Rain = 0
KGO1 191054Z 33019KT M03/M05 A3013 RMK A01 T10281050  RH  085%=      5-min Rain = 0
KGO1 191055Z 33019G24KT M03/M05 A3013 RMK A01 T10281050  RH  085%=      5-min Rain = 0
KGO1 191056Z 33017KT M03/M05 A3013 RMK A01 T10281050  RH  085%=      5-min Rain = 0
KGO1 191057Z 33019KT M03/M05 A3013 RMK A01 T10281050  RH  085%=      5-min Rain = 0
KGO1 191058Z 33020KT M03/M05 A3013 RMK A01 T10291050  RH  086%=      5-min Rain = 0
KGO1 191059Z 33018KT M03/M05 A3013 RMK A01 T10291050  RH  086%=      5-min Rain = 0
KGO1 191100Z 33018KT M03/M05 A3013 RMK A01 T10291049  RH  086%=      5-min Rain = 0
KGO1 191101Z 33017KT M03/M05 A3013 RMK A01 T10291049  RH  086%=      5-min Rain = 0
KGO1 191102Z 33018G24KT M03/M05 A3013 RMK A01 T10301049  RH  086%=      5-min Rain = 0
KGO1 191103Z 33019KT M03/M05 A3013 RMK A01 T10301049  RH  086%=      5-min Rain = 0
KGO1 191104Z 33021KT M03/M05 A3013 RMK A01 T10291049  RH  086%=      5-min Rain = 0
KGO1 191105Z 34022G28KT M03/M05 A3013 RMK A01 T10291049  RH  086%=      5-min Rain = 0
KGO1 191106Z 33019KT M03/M05 A3013 RMK A01 T10291050  RH  085%=      5-min Rain = 0
KGO1 191107Z 33026KT M03/M05 A3013 RMK A01 T10281050  RH  085%=      5-min Rain = 0
KGO1 191108Z 34026G33KT M03/M05 A3013 RMK A01 T10281050  RH  085%=      5-min Rain = 0
KGO1 191109Z 33023KT M03/M05 A3013 RMK A01 T10281051  RH  084%=      5-min Rain = 0
KGO1 191110Z 33025G31KT M03/M05 A3013 RMK A01 T10271051  RH  084%=      5-min Rain = 0
KGO1 191111Z 34024G29KT M03/M05 A3013 RMK A01 T10271051  RH  084%=      5-min Rain = 0
KGO1 191112Z 34022G27KT M03/M05 A3014 RMK A01 T10271052  RH  083%=      5-min Rain = 0
KGO1 191113Z 34020G25KT M03/M05 A3014 RMK A01 T10281052  RH  083%=      5-min Rain = 0
KGO1 191114Z 33022G28KT M03/M05 A3014 RMK A01 T10291053  RH  083%=      5-min Rain = 0
KGO1 191115Z 34025G33KT M03/M05 A3014 RMK A01 T10281053  RH  083%=      5-min Rain = 0
KGO1 191116Z 34025KT M03/M05 A3014 RMK A01 T10291053  RH  083%=      5-min Rain = 0
KGO1 191117Z 33024G29KT M03/M05 A3014 RMK A01 T10281053  RH  083%=      5-min Rain = 0
KGO1 191118Z 34024G32KT M03/M05 A3014 RMK A01 T10291053  RH  083%=      5-min Rain = 0
KGO1 191119Z 34023KT M03/M05 A3014 RMK A01 T10291054  RH  083%=      5-min Rain = 0
KGO1 191120Z 34024KT M03/M05 A3014 RMK A01 T10291054  RH  083%=      5-min Rain = 0
KGO1 191121Z 34020KT M03/M05 A3014 RMK A01 T10291053  RH  083%=      5-min Rain = 0
KGO1 191122Z 34022KT M03/M05 A3014 RMK A01 T10291053  RH  083%=      5-min Rain = 0
KGO1 191123Z 34020G27KT M03/M05 A3014 RMK A01 T10291053  RH  084%=      5-min Rain = 0
KGO1 191124Z 34025G30KT M03/M05 A3014 RMK A01 T10291053  RH  084%=      5-min Rain = 0
KGO1 191125Z 34022G31KT M03/M05 A3014 RMK A01 T10291053  RH  084%=      5-min Rain = 0
KGO1 191126Z 34025KT M03/M05 A3014 RMK A01 T10291053  RH  084%=      5-min Rain = 0
KGO1 191127Z 33020KT M03/M05 A3015 RMK A01 T10291053  RH  084%=      5-min Rain = 0
KGO1 191128Z 33023G28KT M03/M05 A3015 RMK A01 T10291053  RH  083%=      5-min Rain = 0
KGO1 191129Z 34021KT M03/M05 A3015 RMK A01 T10291053  RH  084%=      5-min Rain = 0
KGO1 191130Z 34021KT M03/M05 A3015 RMK A01 T10291053  RH  084%=      5-min Rain = 0
KGO1 191131Z 33021KT M03/M05 A3015 RMK A01 T10291053  RH  084%=      5-min Rain = 0
KGO1 191132Z 34023KT M03/M05 A3015 RMK A01 T10291053  RH  084%=      5-min Rain = 0
KGO1 191133Z 34023KT M03/M05 A3015 RMK A01 T10291052  RH  084%=      5-min Rain = 0
KGO1 191134Z 33022G27KT M03/M05 A3015 RMK A01 T10281052  RH  084%=      5-min Rain = 0
KGO1 191135Z 34023KT M03/M05 A3015 RMK A01 T10281052  RH  084%=      5-min Rain = 0
KGO1 191136Z 33021KT M03/M05 A3015 RMK A01 T10281052  RH  084%=      5-min Rain = 0
KGO1 191137Z 34021G26KT M03/M05 A3016 RMK A01 T10281052  RH  083%=      5-min Rain = 0
KGO1 191138Z 33024G29KT M03/M05 A3016 RMK A01 T10281052  RH  084%=      5-min Rain = 0
KGO1 191139Z 33021G26KT M03/M05 A3016 RMK A01 T10281052  RH  083%=      5-min Rain = 0
KGO1 191140Z 34023G30KT M03/M05 A3016 RMK A01 T10271052  RH  083%=      5-min Rain = 0
KGO1 191141Z 33022KT M03/M05 A3016 RMK A01 T10271052  RH  083%=      5-min Rain = 0
KGO1 191142Z 33026G32KT M03/M05 A3016 RMK A01 T10271052  RH  083%=      5-min Rain = 0
KGO1 191143Z 34024KT M03/M05 A3016 RMK A01 T10271052  RH  083%=      5-min Rain = 0
KGO1 191144Z 33028KT M03/M05 A3015 RMK A01 T10271052  RH  083%=      5-min Rain = 0
KGO1 191145Z 34025G30KT M03/M05 A3016 RMK A01 T10261052  RH  083%=      5-min Rain = 0
KGO1 191146Z 34022G27KT M03/M05 A3016 RMK A01 T10261052  RH  083%=      5-min Rain = 0
KGO1 191147Z 33023G28KT M03/M05 A3016 RMK A01 T10261052  RH  083%=      5-min Rain = 0
KGO1 191148Z 33022KT M03/M05 A3016 RMK A01 T10271052  RH  083%=      5-min Rain = 0
KGO1 191149Z 33021G26KT M03/M05 A3016 RMK A01 T10271053  RH  083%=      5-min Rain = 0
KGO1 191150Z 34024G30KT M03/M05 A3016 RMK A01 T10281052  RH  083%=      5-min Rain = 0
KGO1 191151Z 34022G28KT M03/M05 A3016 RMK A01 T10271052  RH  083%=      5-min Rain = 0
KGO1 191152Z 33021G27KT M03/M05 A3016 RMK A01 T10281052  RH  083%=      5-min Rain = 0
KGO1 191153Z 34020G26KT M03/M05 A3016 RMK A01 T10271052  RH  083%=      5-min Rain = 0
KGO1 191154Z 34023G29KT M03/M05 A3016 RMK A01 T10281052  RH  083%=      5-min Rain = 0
KGO1 191155Z 34026KT M03/M05 A3016 RMK A01 T10271052  RH  083%=      5-min Rain = 0
KGO1 191156Z 33021KT M03/M05 A3016 RMK A01 T10271052  RH  083%=      5-min Rain = 0
KGO1 191157Z 33021KT M03/M05 A3016 RMK A01 T10271052  RH  083%=      5-min Rain = 0
KGO1 191158Z 33021G26KT M03/M05 A3016 RMK A01 T10271052  RH  083%=      5-min Rain = 0
KGO1 191159Z 33022KT M03/M05 A3016 RMK A01 T10271052  RH  084%=      5-min Rain = 0
KGO1 191200Z 33020KT M03/M05 A3016 RMK A01 T10281052  RH  084%=      5-min Rain = 0
KGO1 191201Z 33022G27KT M03/M05 A3016 RMK A01 T10281052  RH  084%=      5-min Rain = 0
KGO1 191202Z 33021KT M03/M05 A3016 RMK A01 T10281051  RH  084%=      5-min Rain = 0
KGO1 191203Z 33022KT M03/M05 A3016 RMK A01 T10281051  RH  084%=      5-min Rain = 0
KGO1 191204Z 33018G24KT M03/M05 A3017 RMK A01 T10281051  RH  084%=      5-min Rain = 0
KGO1 191205Z 33020G25KT M03/M05 A3017 RMK A01 T10281051  RH  084%=      5-min Rain = 0
KGO1 191206Z 34017KT M03/M05 A3017 RMK A01 T10281051  RH  084%=      5-min Rain = 0
KGO1 191207Z 33023KT M03/M05 A3017 RMK A01 T10281051  RH  084%=      5-min Rain = 0
KGO1 191208Z 33024KT M03/M05 A3017 RMK A01 T10281050  RH  085%=      5-min Rain = 0
KGO1 191209Z 33020KT M03/M05 A3017 RMK A01 T10271050  RH  085%=      5-min Rain = 0
KGO1 191210Z 34019KT M03/M05 A3017 RMK A01 T10271050  RH  084%=      5-min Rain = 0
KGO1 191211Z 33018KT M03/M05 A3017 RMK A01 T10281050  RH  084%=      5-min Rain = 0
KGO1 191212Z 33018KT M03/M05 A3017 RMK A01 T10271050  RH  085%=      5-min Rain = 0
KGO1 191213Z 34020G27KT M03/M05 A3017 RMK A01 T10271049  RH  085%=      5-min Rain = 0
KGO1 191214Z 34022KT M03/M05 A3017 RMK A01 T10271049  RH  085%=      5-min Rain = 0
KGO1 191215Z 34020G26KT M03/M05 A3017 RMK A01 T10261049  RH  084%=      5-min Rain = 0
KGO1 191216Z 33021G28KT M03/M05 A3017 RMK A01 T10261050  RH  084%=      5-min Rain = 0
KGO1 191217Z 34016KT M03/M05 A3018 RMK A01 T10261049  RH  084%=      5-min Rain = 0
KGO1 191218Z 34017G22KT M03/M05 A3017 RMK A01 T10261049  RH  084%=      5-min Rain = 0
KGO1 191219Z 34020KT M03/M05 A3017 RMK A01 T10261049  RH  084%=      5-min Rain = 0
KGO1 191220Z 33019G28KT M03/M05 A3017 RMK A01 T10261049  RH  084%=      5-min Rain = 0
KGO1 191221Z 34021G26KT M03/M05 A3017 RMK A01 T10251048  RH  084%=      5-min Rain = 0
KGO1 191222Z 34020G26KT M03/M05 A3017 RMK A01 T10251048  RH  084%=      5-min Rain = 0
KGO1 191223Z 34020G27KT M02/M05 A3018 RMK A01 T10241048  RH  084%=      5-min Rain = 0
KGO1 191224Z 34021KT M02/M05 A3018 RMK A01 T10241048  RH  084%=      5-min Rain = 0
KGO1 191225Z 34019G24KT M02/M05 A3018 RMK A01 T10241049  RH  083%=      5-min Rain = 0
KGO1 191226Z 34017KT M02/M05 A3018 RMK A01 T10241048  RH  084%=      5-min Rain = 0
KGO1 191227Z 33017G23KT M03/M05 A3018 RMK A01 T10251049  RH  083%=      5-min Rain = 0
KGO1 191228Z 34019KT M02/M05 A3018 RMK A01 T10241048  RH  084%=      5-min Rain = 0
KGO1 191229Z 34021G27KT M02/M05 A3018 RMK A01 T10241048  RH  083%=      5-min Rain = 0
KGO1 191230Z 34020KT M02/M05 A3018 RMK A01 T10231048  RH  083%=      5-min Rain = 0
KGO1 191231Z 34017KT M02/M05 A3018 RMK A01 T10231048  RH  083%=      5-min Rain = 0
KGO1 191232Z 34020KT M02/M05 A3018 RMK A01 T10231048  RH  083%=      5-min Rain = 0
KGO1 191233Z 33017G24KT M02/M05 A3018 RMK A01 T10231047  RH  083%=      5-min Rain = 0
KGO1 191234Z 34018G23KT M02/M05 A3018 RMK A01 T10231047  RH  083%=      5-min Rain = 0
KGO1 191235Z 34019G24KT M02/M05 A3018 RMK A01 T10231047  RH  083%=      5-min Rain = 0
KGO1 191236Z 33019KT M02/M05 A3018 RMK A01 T10231048  RH  083%=      5-min Rain = 0
KGO1 191237Z 34016KT M02/M05 A3018 RMK A01 T10231048  RH  083%=      5-min Rain = 0
KGO1 191238Z 34017G22KT M02/M05 A3018 RMK A01 T10231048  RH  083%=      5-min Rain = 0
KGO1 191239Z 34017G25KT M02/M05 A3018 RMK A01 T10231047  RH  083%=      5-min Rain = 0
KGO1 191240Z 34019KT M02/M05 A3018 RMK A01 T10231047  RH  084%=      5-min Rain = 0
KGO1 191241Z 34018G23KT M02/M05 A3018 RMK A01 T10231047  RH  084%=      5-min Rain = 0
KGO1 191242Z 34015KT M02/M05 A3018 RMK A01 T10231047  RH  084%=      5-min Rain = 0
KGO1 191243Z 34016KT M02/M05 A3018 RMK A01 T10241047  RH  084%=      5-min Rain = 0
KGO1 191244Z 34017KT M02/M05 A3018 RMK A01 T10241047  RH  084%=      5-min Rain = 0
KGO1 191245Z 34018KT M02/M05 A3018 RMK A01 T10241047  RH  084%=      5-min Rain = 0
KGO1 191246Z 34019G24KT M02/M05 A3018 RMK A01 T10241047  RH  084%=      5-min Rain = 0
KGO1 191247Z 34023G28KT M02/M05 A3018 RMK A01 T10241047  RH  084%=      5-min Rain = 0
KGO1 191248Z 34019G27KT M02/M05 A3018 RMK A01 T10241048  RH  084%=      5-min Rain = 0
KGO1 191249Z 34018KT M02/M05 A3018 RMK A01 T10241048  RH  084%=      5-min Rain = 0
KGO1 191250Z 34019G25KT M02/M05 A3018 RMK A01 T10241048  RH  084%=      5-min Rain = 0
KGO1 191251Z 34018G26KT M02/M05 A3018 RMK A01 T10241048  RH  084%=      5-min Rain = 0
KGO1 191252Z 34021KT M02/M05 A3018 RMK A01 T10241048  RH  084%=      5-min Rain = 0
KGO1 191253Z 34024KT M02/M05 A3018 RMK A01 T10241048  RH  083%=      5-min Rain = 0
KGO1 191254Z 34020KT M02/M05 A3018 RMK A01 T10241048  RH  083%=      5-min Rain = 0
KGO1 191255Z 34020KT M02/M05 A3018 RMK A01 T10231048  RH  083%=      5-min Rain = 0
KGO1 191256Z 34017G23KT M02/M05 A3019 RMK A01 T10231048  RH  083%=      5-min Rain = 0
KGO1 191257Z 34019KT M02/M05 A3019 RMK A01 T10231048  RH  083%=      5-min Rain = 0
KGO1 191258Z 34019G25KT M02/M05 A3019 RMK A01 T10241049  RH  083%=      5-min Rain = 0
KGO1 191259Z 34021G27KT M02/M05 A3019 RMK A01 T10241048  RH  083%=      5-min Rain = 0
KGO1 191300Z 34021KT M02/M05 A3019 RMK A01 T10241048  RH  083%=      5-min Rain = 0
KGO1 191301Z 34022KT M02/M05 A3019 RMK A01 T10241049  RH  083%=      5-min Rain = 0
KGO1 191302Z 34018KT M02/M05 A3019 RMK A01 T10241048  RH  083%=      5-min Rain = 0
KGO1 191303Z 34020G26KT M02/M05 A3019 RMK A01 T10241049  RH  083%=      5-min Rain = 0
KGO1 191304Z 34020KT M02/M05 A3019 RMK A01 T10241049  RH  083%=      5-min Rain = 0
KGO1 191305Z 34020KT M02/M05 A3019 RMK A01 T10241049  RH  083%=      5-min Rain = 0
KGO1 191306Z 34022G27KT M02/M05 A3019 RMK A01 T10241049  RH  083%=      5-min Rain = 0
KGO1 191307Z 34022KT M02/M05 A3019 RMK A01 T10241049  RH  083%=      5-min Rain = 0
KGO1 191308Z 34021KT M02/M05 A3019 RMK A01 T10241049  RH  083%=      5-min Rain = 0
KGO1 191309Z 34018KT M03/M05 A3019 RMK A01 T10251050  RH  083%=      5-min Rain = 0
KGO1 191310Z 34017G22KT M03/M05 A3019 RMK A01 T10251050  RH  083%=      5-min Rain = 0
KGO1 191311Z 34020G27KT M03/M05 A302 RMK A01 T10251050  RH  083%=      5-min Rain = 0
KGO1 191312Z 34018G24KT M03/M05 A302 RMK A01 T10251050  RH  083%=      5-min Rain = 0
KGO1 191313Z 34017G23KT M03/M05 A302 RMK A01 T10261051  RH  083%=      5-min Rain = 0
KGO1 191314Z 34018G23KT M03/M05 A302 RMK A01 T10261050  RH  083%=      5-min Rain = 0
KGO1 191315Z 33017KT M03/M05 A302 RMK A01 T10261050  RH  083%=      5-min Rain = 0
KGO1 191316Z 34021KT M03/M05 A302 RMK A01 T10261050  RH  083%=      5-min Rain = 0
KGO1 191317Z 34019KT M03/M05 A302 RMK A01 T10251050  RH  083%=      5-min Rain = 0
KGO1 191318Z 34018KT M03/M05 A302 RMK A01 T10261050  RH  083%=      5-min Rain = 0
KGO1 191319Z 34020KT M03/M05 A302 RMK A01 T10251050  RH  083%=      5-min Rain = 0
KGO1 191320Z 34017KT M03/M05 A302 RMK A01 T10251050  RH  083%=      5-min Rain = 0
KGO1 191321Z 34021G26KT M03/M05 A302 RMK A01 T10251050  RH  083%=      5-min Rain = 0
KGO1 191322Z 34021KT M03/M05 A302 RMK A01 T10251050  RH  083%=      5-min Rain = 0
KGO1 191323Z 34021KT M03/M05 A302 RMK A01 T10251049  RH  083%=      5-min Rain = 0
KGO1 191324Z 33023G28KT M02/M05 A302 RMK A01 T10241049  RH  083%=      5-min Rain = 0
KGO1 191325Z 33023KT M02/M05 A302 RMK A01 T10241049  RH  083%=      5-min Rain = 0
KGO1 191326Z 34022KT M02/M05 A302 RMK A01 T10241050  RH  083%=      5-min Rain = 0
KGO1 191327Z 34019G25KT M02/M05 A3021 RMK A01 T10241050  RH  082%=      5-min Rain = 0
KGO1 191328Z 33020G25KT M02/M05 A3021 RMK A01 T10241050  RH  083%=      5-min Rain = 0
KGO1 191329Z 33019KT M02/M05 A3021 RMK A01 T10241050  RH  083%=      5-min Rain = 0
KGO1 191330Z 34020G25KT M03/M05 A3021 RMK A01 T10251050  RH  083%=      5-min Rain = 0
KGO1 191331Z 34020G26KT M03/M05 A3021 RMK A01 T10251050  RH  083%=      5-min Rain = 0
KGO1 191332Z 34020KT M03/M05 A3021 RMK A01 T10251050  RH  083%=      5-min Rain = 0
KGO1 191333Z 34020KT M03/M05 A3021 RMK A01 T10251049  RH  083%=      5-min Rain = 0
KGO1 191334Z 34015KT M03/M05 A3021 RMK A01 T10251049  RH  083%=      5-min Rain = 0
KGO1 191335Z 34020KT M03/M05 A3021 RMK A01 T10251050  RH  083%=      5-min Rain = 0
KGO1 191336Z 34017KT M03/M05 A3021 RMK A01 T10251050  RH  083%=      5-min Rain = 0
KGO1 191337Z 34017KT M03/M05 A3021 RMK A01 T10251049  RH  083%=      5-min Rain = 0
KGO1 191338Z 33017KT M03/M05 A3022 RMK A01 T10251050  RH  083%=      5-min Rain = 0
KGO1 191339Z 33019KT M03/M05 A3021 RMK A01 T10251049  RH  084%=      5-min Rain = 0
KGO1 191340Z 33016G21KT M03/M05 A3022 RMK A01 T10251049  RH  083%=      5-min Rain = 0
KGO1 191341Z 34016KT M03/M05 A3022 RMK A01 T10251050  RH  083%=      5-min Rain = 0
KGO1 191342Z 33016G21KT M03/M05 A3022 RMK A01 T10251050  RH  083%=      5-min Rain = 0
KGO1 191343Z 34017G22KT M03/M05 A3022 RMK A01 T10261050  RH  083%=      5-min Rain = 0
KGO1 191344Z 34016KT M03/M05 A3022 RMK A01 T10261050  RH  083%=      5-min Rain = 0
KGO1 191345Z 34016KT M03/M05 A3022 RMK A01 T10261050  RH  083%=      5-min Rain = 0
KGO1 191346Z 34016KT M03/M05 A3022 RMK A01 T10261050  RH  084%=      5-min Rain = 0
KGO1 191347Z 34016G21KT M03/M05 A3022 RMK A01 T10261050  RH  084%=      5-min Rain = 0
KGO1 191348Z 34017KT M03/M05 A3022 RMK A01 T10261050  RH  084%=      5-min Rain = 0
KGO1 191349Z 34017G22KT M03/M05 A3022 RMK A01 T10261050  RH  084%=      5-min Rain = 0
KGO1 191350Z 34015G21KT M03/M05 A3022 RMK A01 T10261049  RH  084%=      5-min Rain = 0
KGO1 191351Z 34018KT M03/M05 A3022 RMK A01 T10251049  RH  084%=      5-min Rain = 0
KGO1 191352Z 34017G22KT M03/M05 A3022 RMK A01 T10251049  RH  084%=      5-min Rain = 0
KGO1 191353Z 33016KT M02/M05 A3022 RMK A01 T10241048  RH  084%=      5-min Rain = 0
KGO1 191354Z 34020KT M02/M05 A3022 RMK A01 T10241048  RH  083%=      5-min Rain = 0
KGO1 191355Z 34017KT M02/M05 A3022 RMK A01 T10241048  RH  083%=      5-min Rain = 0
KGO1 191356Z 34015KT M02/M05 A3023 RMK A01 T10231048  RH  083%=      5-min Rain = 0
KGO1 191357Z 34016KT M02/M05 A3023 RMK A01 T10231048  RH  083%=      5-min Rain = 0
KGO1 191358Z 33017KT M02/M05 A3023 RMK A01 T10231048  RH  083%=      5-min Rain = 0
KGO1 191359Z 33018KT M02/M05 A3023 RMK A01 T10231048  RH  083%=      5-min Rain = 0
KGO1 191400Z 34015G20KT M02/M05 A3023 RMK A01 T10221047  RH  083%=      5-min Rain = 0
KGO1 191401Z 34013KT M02/M05 A3023 RMK A01 T10221047  RH  083%=      5-min Rain = 0
KGO1 191402Z 34013KT M02/M05 A3023 RMK A01 T10221047  RH  083%=      5-min Rain = 0
KGO1 191403Z 33011KT M02/M05 A3023 RMK A01 T10221047  RH  083%=      5-min Rain = 0
KGO1 191404Z 34012KT M02/M05 A3023 RMK A01 T10211046  RH  083%=      5-min Rain = 0
KGO1 191405Z 34014G20KT M02/M05 A3023 RMK A01 T10211046  RH  083%=      5-min Rain = 0
KGO1 191406Z 34014KT M02/M05 A3023 RMK A01 T10211046  RH  083%=      5-min Rain = 0
KGO1 191407Z 33014KT M02/M05 A3023 RMK A01 T10211046  RH  083%=      5-min Rain = 0
KGO1 191408Z 33014KT M02/M05 A3023 RMK A01 T10211046  RH  083%=      5-min Rain = 0
KGO1 191409Z 33015KT M02/M05 A3023 RMK A01 T10201046  RH  083%=      5-min Rain = 0
KGO1 191410Z 33016G21KT M02/M05 A3023 RMK A01 T10201046  RH  083%=      5-min Rain = 0
KGO1 191411Z 33019G26KT M02/M05 A3023 RMK A01 T10201046  RH  083%=      5-min Rain = 0
KGO1 191412Z 34019G26KT M02/M05 A3023 RMK A01 T10201046  RH  082%=      5-min Rain = 0
KGO1 191413Z 34016G21KT M02/M05 A3023 RMK A01 T10191046  RH  082%=      5-min Rain = 0
KGO1 191414Z 34018G23KT M02/M05 A3023 RMK A01 T10191046  RH  082%=      5-min Rain = 0
KGO1 191415Z 33020KT M02/M05 A3023 RMK A01 T10191046  RH  082%=      5-min Rain = 0
KGO1 191416Z 33022KT M02/M05 A3023 RMK A01 T10191046  RH  082%=      5-min Rain = 0
KGO1 191417Z 34019KT M02/M05 A3023 RMK A01 T10191046  RH  082%=      5-min Rain = 0
KGO1 191418Z 33020G27KT M02/M05 A3023 RMK A01 T10191046  RH  082%=      5-min Rain = 0
KGO1 191419Z 33021KT M02/M05 A3023 RMK A01 T10191046  RH  082%=      5-min Rain = 0
KGO1 191420Z 33021KT M02/M05 A3023 RMK A01 T10181045  RH  082%=      5-min Rain = 0
KGO1 191421Z 34019G24KT M02/M05 A3024 RMK A01 T10181045  RH  082%=      5-min Rain = 0
KGO1 191422Z 34020G25KT M02/M05 A3024 RMK A01 T10181045  RH  082%=      5-min Rain = 0
KGO1 191423Z 33016KT M02/M04 A3024 RMK A01 T10171044  RH  082%=      5-min Rain = 0
KGO1 191424Z 33018KT M02/M04 A3024 RMK A01 T10181044  RH  082%=      5-min Rain = 0
KGO1 191425Z 33017KT M02/M04 A3024 RMK A01 T10171044  RH  082%=      5-min Rain = 0
KGO1 191426Z 33019KT M02/M04 A3024 RMK A01 T10171044  RH  082%=      5-min Rain = 0
KGO1 191427Z 34019KT M02/M05 A3024 RMK A01 T10171045  RH  082%=      5-min Rain = 0
KGO1 191428Z 34020KT M02/M04 A3024 RMK A01 T10171044  RH  082%=      5-min Rain = 0
KGO1 191429Z 34019KT M02/M05 A3024 RMK A01 T10171045  RH  081%=      5-min Rain = 0
KGO1 191430Z 34020G25KT M02/M05 A3024 RMK A01 T10181045  RH  081%=      5-min Rain = 0
KGO1 191431Z 34017G24KT M02/M05 A3024 RMK A01 T10181046  RH  081%=      5-min Rain = 0
KGO1 191432Z 34021KT M02/M05 A3024 RMK A01 T10181045  RH  082%=      5-min Rain = 0
KGO1 191433Z 34019KT M02/M05 A3024 RMK A01 T10181045  RH  081%=      5-min Rain = 0
KGO1 191434Z 34017G22KT M02/M05 A3024 RMK A01 T10181045  RH  082%=      5-min Rain = 0
KGO1 191435Z 34018KT M02/M05 A3025 RMK A01 T10181045  RH  082%=      5-min Rain = 0
KGO1 191436Z 34020G25KT M02/M05 A3025 RMK A01 T10181045  RH  082%=      5-min Rain = 0
KGO1 191437Z 34019KT M02/M05 A3025 RMK A01 T10181046  RH  082%=      5-min Rain = 0
KGO1 191438Z 34019KT M02/M05 A3025 RMK A01 T10181045  RH  082%=      5-min Rain = 0
KGO1 191439Z 34018G23KT M02/M05 A3025 RMK A01 T10181045  RH  082%=      5-min Rain = 0
KGO1 191440Z 34022KT M02/M05 A3025 RMK A01 T10181045  RH  082%=      5-min Rain = 0
KGO1 191441Z 34018G24KT M02/M05 A3025 RMK A01 T10181045  RH  082%=      5-min Rain = 0
KGO1 191442Z 33019G25KT M02/M05 A3025 RMK A01 T10181045  RH  082%=      5-min Rain = 0
KGO1 191443Z 34020KT M02/M05 A3025 RMK A01 T10181046  RH  082%=      5-min Rain = 0
KGO1 191444Z 33021KT M02/M05 A3025 RMK A01 T10181045  RH  081%=      5-min Rain = 0
KGO1 191445Z 34019G24KT M02/M05 A3025 RMK A01 T10181046  RH  081%=      5-min Rain = 0
KGO1 191446Z 34021KT M02/M05 A3025 RMK A01 T10181046  RH  081%=      5-min Rain = 0
KGO1 191447Z 34019G24KT M02/M05 A3025 RMK A01 T10181046  RH  081%=      5-min Rain = 0
KGO1 191448Z 33016KT M02/M05 A3025 RMK A01 T10171045  RH  081%=      5-min Rain = 0
KGO1 191449Z 33022KT M02/M05 A3025 RMK A01 T10171045  RH  082%=      5-min Rain = 0
KGO1 191450Z 34019KT M02/M05 A3026 RMK A01 T10171045  RH  081%=      5-min Rain = 0
KGO1 191451Z 34019KT M02/M05 A3026 RMK A01 T10171045  RH  081%=      5-min Rain = 0
KGO1 191452Z 34019KT M02/M05 A3026 RMK A01 T10171045  RH  082%=      5-min Rain = 0
KGO1 191453Z 34019G24KT M02/M05 A3026 RMK A01 T10171045  RH  082%=      5-min Rain = 0
KGO1 191454Z 34018KT M02/M04 A3026 RMK A01 T10171044  RH  082%=      5-min Rain = 0
KGO1 191455Z 34017KT M02/M05 A3026 RMK A01 T10171045  RH  082%=      5-min Rain = 0
KGO1 191456Z 34018KT M02/M04 A3026 RMK A01 T10171044  RH  082%=      5-min Rain = 0
KGO1 191457Z 33014KT M02/M04 A3026 RMK A01 T10171044  RH  082%=      5-min Rain = 0
KGO1 191458Z 34015KT M02/M04 A3026 RMK A01 T10161043  RH  082%=      5-min Rain = 0
KGO1 191459Z 34017KT M02/M04 A3026 RMK A01 T10171044  RH  082%=      5-min Rain = 0
KGO1 191500Z 34015G20KT M02/M04 A3026 RMK A01 T10161044  RH  082%=      5-min Rain = 0
KGO1 191501Z 33012KT M02/M04 A3026 RMK A01 T10161044  RH  082%=      5-min Rain = 0
KGO1 191502Z 34014G20KT M02/M04 A3026 RMK A01 T10161043  RH  082%=      5-min Rain = 0
KGO1 191503Z 35017KT M02/M04 A3027 RMK A01 T10151043  RH  082%=      5-min Rain = 0
KGO1 191504Z 33017KT M02/M04 A3027 RMK A01 T10151043  RH  081%=      5-min Rain = 0
KGO1 191505Z 33017KT M02/M04 A3027 RMK A01 T10151044  RH  081%=      5-min Rain = 0
KGO1 191506Z 34017G23KT M02/M04 A3027 RMK A01 T10151043  RH  081%=      5-min Rain = 0
KGO1 191507Z 33015KT M02/M04 A3027 RMK A01 T10151043  RH  081%=      5-min Rain = 0
KGO1 191508Z 33016G21KT M02/M04 A3027 RMK A01 T10151043  RH  081%=      5-min Rain = 0
KGO1 191509Z 34015KT M02/M04 A3027 RMK A01 T10151043  RH  081%=      5-min Rain = 0
KGO1 191510Z 34020G25KT M01/M04 A3027 RMK A01 T10141043  RH  081%=      5-min Rain = 0
KGO1 191511Z 34024G31KT M01/M05 A3027 RMK A01 T10141045  RH  080%=      5-min Rain = 0
KGO1 191512Z 34022KT M01/M05 A3027 RMK A01 T10141045  RH  079%=      5-min Rain = 0
KGO1 191513Z 35023KT M01/M05 A3027 RMK A01 T10141046  RH  079%=      5-min Rain = 0
KGO1 191514Z 33019KT M01/M05 A3027 RMK A01 T10141045  RH  079%=      5-min Rain = 0
KGO1 191515Z 34019G24KT M01/M04 A3027 RMK A01 T10141044  RH  080%=      5-min Rain = 0
KGO1 191516Z 35020KT M01/M04 A3027 RMK A01 T10131044  RH  080%=      5-min Rain = 0
KGO1 191517Z 34015KT M01/M04 A3027 RMK A01 T10131044  RH  080%=      5-min Rain = 0
KGO1 191518Z 35019KT M01/M04 A3028 RMK A01 T10131043  RH  080%=      5-min Rain = 0
KGO1 191519Z 34022G27KT M01/M04 A3028 RMK A01 T10121043  RH  079%=      5-min Rain = 0
KGO1 191520Z 34021G26KT M01/M04 A3028 RMK A01 T10131044  RH  079%=      5-min Rain = 0
KGO1 191521Z 34023KT M01/M04 A3028 RMK A01 T10131044  RH  079%=      5-min Rain = 0
KGO1 191522Z 34021KT M01/M04 A3028 RMK A01 T10131044  RH  079%=      5-min Rain = 0
KGO1 191523Z 34015KT M01/M04 A3028 RMK A01 T10131044  RH  080%=      5-min Rain = 0
KGO1 191524Z 33016KT M01/M04 A3028 RMK A01 T10131043  RH  080%=      5-min Rain = 0
KGO1 191525Z 34018G23KT M01/M04 A3028 RMK A01 T10121043  RH  080%=      5-min Rain = 0
KGO1 191526Z 34015KT M01/M04 A3028 RMK A01 T10131043  RH  080%=      5-min Rain = 0
KGO1 191527Z 34014KT M01/M04 A3028 RMK A01 T10121042  RH  080%=      5-min Rain = 0
KGO1 191528Z 34014KT M01/M04 A3028 RMK A01 T10121042  RH  080%=      5-min Rain = 0
KGO1 191529Z 35014KT M01/M04 A3028 RMK A01 T10121042  RH  080%=      5-min Rain = 0
KGO1 191530Z 34014KT M01/M04 A3028 RMK A01 T10111042  RH  080%=      5-min Rain = 0
KGO1 191531Z 33017KT M01/M04 A3028 RMK A01 T10121042  RH  080%=      5-min Rain = 0
KGO1 191532Z 33021G29KT M01/M04 A3028 RMK A01 T10121043  RH  079%=      5-min Rain = 0
KGO1 191533Z 35021G26KT M01/M04 A3028 RMK A01 T10131044  RH  079%=      5-min Rain = 0
KGO1 191534Z 34015KT M01/M04 A3029 RMK A01 T10131044  RH  079%=      5-min Rain = 0
KGO1 191535Z 34015KT M01/M04 A3029 RMK A01 T10131043  RH  080%=      5-min Rain = 0
KGO1 191536Z 34014G19KT M01/M04 A3029 RMK A01 T10121043  RH  080%=      5-min Rain = 0
KGO1 191537Z 34018KT M01/M04 A3029 RMK A01 T10111042  RH  080%=      5-min Rain = 0
KGO1 191538Z 34019KT M01/M04 A3029 RMK A01 T10121043  RH  079%=      5-min Rain = 0
KGO1 191539Z 34019G24KT M01/M04 A3029 RMK A01 T10121043  RH  079%=      5-min Rain = 0
KGO1 191540Z 33021KT M01/M04 A3028 RMK A01 T10121044  RH  079%=      5-min Rain = 0
KGO1 191541Z 33016KT M01/M04 A3029 RMK A01 T10121044  RH  079%=      5-min Rain = 0
KGO1 191542Z 33022G28KT M01/M04 A3028 RMK A01 T10121043  RH  079%=      5-min Rain = 0
KGO1 191543Z 34019G24KT M01/M04 A3028 RMK A01 T10121044  RH  079%=      5-min Rain = 0
KGO1 191544Z 34018KT M01/M04 A3029 RMK A01 T10121044  RH  079%=      5-min Rain = 0
KGO1 191545Z 34019G27KT M01/M04 A3029 RMK A01 T10111044  RH  079%=      5-min Rain = 0
KGO1 191546Z 34018G23KT M01/M04 A3029 RMK A01 T10111043  RH  079%=      5-min Rain = 0
KGO1 191547Z 34018KT M01/M04 A3029 RMK A01 T10111044  RH  078%=      5-min Rain = 0
KGO1 191548Z 35019KT M01/M04 A3029 RMK A01 T10111043  RH  079%=      5-min Rain = 0
KGO1 191549Z 35020G26KT M01/M04 A3029 RMK A01 T10111043  RH  079%=      5-min Rain = 0
KGO1 191550Z 35019KT M01/M04 A3029 RMK A01 T10111043  RH  079%=      5-min Rain = 0
KGO1 191551Z 35019KT M01/M04 A3029 RMK A01 T10111043  RH  079%=      5-min Rain = 0
KGO1 191552Z 34016KT M01/M04 A3029 RMK A01 T10111043  RH  079%=      5-min Rain = 0
KGO1 191553Z 35017KT M01/M04 A3029 RMK A01 T10111043  RH  079%=      5-min Rain = 0
KGO1 191554Z 35016KT M01/M04 A3029 RMK A01 T10111043  RH  079%=      5-min Rain = 0
KGO1 191555Z 34015G20KT M01/M04 A3029 RMK A01 T10101042  RH  079%=      5-min Rain = 0
KGO1 191556Z 35018G23KT M01/M04 A3029 RMK A01 T10101042  RH  079%=      5-min Rain = 0
KGO1 191557Z 34019KT M01/M04 A3029 RMK A01 T10101043  RH  079%=      5-min Rain = 0
KGO1 191558Z 34018KT M01/M04 A3029 RMK A01 T10101042  RH  079%=      5-min Rain = 0
KGO1 191559Z 34019G24KT M01/M04 A3029 RMK A01 T10091042  RH  078%=      5-min Rain = 0
KGO1 191600Z 34017KT M01/M04 A3029 RMK A01 T10101043  RH  078%=      5-min Rain = 0
KGO1 191601Z 34018G23KT M01/M04 A3029 RMK A01 T10101043  RH  078%=      5-min Rain = 0
KGO1 191602Z 35019KT M01/M04 A3029 RMK A01 T10091043  RH  078%=      5-min Rain = 0
KGO1 191603Z 34019KT M01/M04 A3029 RMK A01 T10091043  RH  078%=      5-min Rain = 0
KGO1 191604Z 34023G29KT M01/M04 A3029 RMK A01 T10091043  RH  078%=      5-min Rain = 0
KGO1 191605Z 35026KT M01/M05 A3029 RMK A01 T10101045  RH  077%=      5-min Rain = 0
KGO1 191606Z 35023G28KT M01/M05 A3029 RMK A01 T10101046  RH  077%=      5-min Rain = 0
KGO1 191607Z 34023KT M01/M05 A3029 RMK A01 T10101046  RH  077%=      5-min Rain = 0
KGO1 191608Z 33021KT M01/M05 A3029 RMK A01 T10101046  RH  077%=      5-min Rain = 0
KGO1 191609Z 34019KT M01/M04 A3029 RMK A01 T10091044  RH  077%=      5-min Rain = 0
KGO1 191610Z 35021G30KT M01/M04 A3029 RMK A01 T10071043  RH  077%=      5-min Rain = 0
KGO1 191611Z 35025G30KT M01/M04 A3029 RMK A01 T10071044  RH  076%=      5-min Rain = 0
KGO1 191612Z 35024KT M01/M05 A3029 RMK A01 T10081046  RH  075%=      5-min Rain = 0
KGO1 191613Z 34024KT M01/M05 A3029 RMK A01 T10081046  RH  076%=      5-min Rain = 0
KGO1 191614Z 34021G27KT M01/M05 A303 RMK A01 T10071045  RH  076%=      5-min Rain = 0
KGO1 191615Z 34024G30KT M01/M04 A3029 RMK A01 T10061044  RH  076%=      5-min Rain = 0
KGO1 191616Z 34024G29KT M01/M05 A3029 RMK A01 T10061045  RH  075%=      5-min Rain = 0
KGO1 191617Z 34021G26KT M01/M05 A3029 RMK A01 T10061046  RH  075%=      5-min Rain = 0
KGO1 191618Z 34024G30KT M01/M05 A3029 RMK A01 T10061045  RH  075%=      5-min Rain = 0
KGO1 191619Z 34024G29KT M01/M05 A303 RMK A01 T10061046  RH  075%=      5-min Rain = 0
KGO1 191620Z 34021KT M01/M05 A303 RMK A01 T10061046  RH  075%=      5-min Rain = 0
KGO1 191621Z 34021G26KT M01/M05 A303 RMK A01 T10061046  RH  075%=      5-min Rain = 0
KGO1 191622Z 35021G26KT M01/M05 A303 RMK A01 T10061045  RH  075%=      5-min Rain = 0
KGO1 191623Z 34028G33KT M01/M05 A303 RMK A01 T10051045  RH  074%=      5-min Rain = 0
KGO1 191624Z 34025G30KT M01/M05 A303 RMK A01 T10051046  RH  074%=      5-min Rain = 0
KGO1 191625Z 34026G33KT M01/M05 A303 RMK A01 T10051046  RH  074%=      5-min Rain = 0
KGO1 191626Z 34023KT M01/M05 A303 RMK A01 T10051047  RH  073%=      5-min Rain = 0
KGO1 191627Z 34021G27KT M01/M05 A3031 RMK A01 T10061047  RH  074%=      5-min Rain = 0
KGO1 191628Z 35024G29KT M01/M05 A3031 RMK A01 T10051047  RH  073%=      5-min Rain = 0
KGO1 191629Z 34029G34KT M01/M05 A303 RMK A01 T10061047  RH  073%=      5-min Rain = 0
KGO1 191630Z 35028G37KT M01/M05 A3031 RMK A01 T10071048  RH  073%=      5-min Rain = 0
KGO1 191631Z 35023KT M01/M05 A3031 RMK A01 T10071048  RH  074%=      5-min Rain = 0
KGO1 191632Z 35024G30KT M01/M05 A3031 RMK A01 T10061046  RH  074%=      5-min Rain = 0
KGO1 191633Z 34026G31KT M01/M05 A3031 RMK A01 T10061047  RH  073%=      5-min Rain = 0
KGO1 191634Z 34025G32KT M01/M05 A3031 RMK A01 T10061048  RH  074%=      5-min Rain = 0
KGO1 191635Z 34028G34KT M01/M05 A3031 RMK A01 T10061046  RH  074%=      5-min Rain = 0
KGO1 191636Z 34023G28KT M01/M05 A3031 RMK A01 T10061047  RH  074%=      5-min Rain = 0
KGO1 191637Z 34023KT M01/M05 A3031 RMK A01 T10071048  RH  074%=      5-min Rain = 0
KGO1 191638Z 33024G31KT M01/M05 A3031 RMK A01 T10081048  RH  074%=      5-min Rain = 0
KGO1 191639Z 33028KT M01/M05 A3031 RMK A01 T10081048  RH  074%=      5-min Rain = 0
KGO1 191640Z 34026G32KT M01/M05 A3031 RMK A01 T10081049  RH  074%=      5-min Rain = 0
KGO1 191641Z 34026G31KT M01/M05 A3031 RMK A01 T10081049  RH  074%=      5-min Rain = 0
KGO1 191642Z 34025G32KT M01/M05 A3031 RMK A01 T10071048  RH  074%=      5-min Rain = 0
KGO1 191643Z 33023G30KT M01/M05 A3031 RMK A01 T10071048  RH  074%=      5-min Rain = 0
KGO1 191644Z 34027G32KT M01/M05 A3031 RMK A01 T10071049  RH  073%=      5-min Rain = 0
KGO1 191645Z 34023KT M01/M05 A3032 RMK A01 T10071049  RH  073%=      5-min Rain = 0
KGO1 191646Z 33026G33KT M01/M05 A3031 RMK A01 T10071049  RH  074%=      5-min Rain = 0
KGO1 191647Z 33024G30KT M01/M05 A3032 RMK A01 T10071048  RH  074%=      5-min Rain = 0
KGO1 191648Z 34021G26KT M01/M05 A3032 RMK A01 T10051045  RH  074%=      5-min Rain = 0
KGO1 191649Z 33023G29KT 00/04 A3032 RMK A01 T00-00-42  RH  073%=      5-min Rain = 0
KGO1 191650Z 33025KT 00/M04 A3032 RMK A01 T00011044  RH  072%=      5-min Rain = 0
KGO1 191651Z 33023G28KT M00/M05 A3032 RMK A01 T10011047  RH  071%=      5-min Rain = 0
KGO1 191652Z 34022KT M00/M05 A3032 RMK A01 T10011046  RH  072%=      5-min Rain = 0
KGO1 191653Z 34021G27KT 00/05 A3032 RMK A01 T00000-45  RH  072%=      5-min Rain = 0
KGO1 191654Z 34022KT 00/M04 A3032 RMK A01 T00021044  RH  072%=      5-min Rain = 0
KGO1 191655Z 33025G31KT 00/M04 A3032 RMK A01 T00031044  RH  071%=      5-min Rain = 0
KGO1 191656Z 33026KT 00/M05 A3032 RMK A01 T00011047  RH  070%=      5-min Rain = 0
KGO1 191657Z 34026G32KT M00/M05 A3032 RMK A01 T10011047  RH  071%=      5-min Rain = 0
KGO1 191658Z 33024G29KT M00/M05 A3032 RMK A01 T10021047  RH  071%=      5-min Rain = 0
KGO1 191659Z 33024G30KT M00/M05 A3032 RMK A01 T10021047  RH  072%=      5-min Rain = 0
KGO1 191700Z 33026G32KT M00/M05 A3032 RMK A01 T10031047  RH  072%=      5-min Rain = 0
KGO1 191701Z 34027G33KT M00/M05 A3032 RMK A01 T10031047  RH  072%=      5-min Rain = 0
KGO1 191702Z 34026G31KT M00/M05 A3033 RMK A01 T10031047  RH  072%=      5-min Rain = 0
KGO1 191703Z 34025KT M00/M05 A3033 RMK A01 T10031046  RH  073%=      5-min Rain = 0
KGO1 191704Z 34022KT M00/M05 A3033 RMK A01 T10021045  RH  073%=      5-min Rain = 0
KGO1 191705Z 34024G30KT M00/M04 A3033 RMK A01 T10011044  RH  073%=      5-min Rain = 0
KGO1 191706Z 33023KT M00/M05 A3033 RMK A01 T10021046  RH  072%=      5-min Rain = 0
KGO1 191707Z 34022G29KT M00/M05 A3033 RMK A01 T10021045  RH  073%=      5-min Rain = 0
KGO1 191708Z 34024KT M00/M05 A3033 RMK A01 T10021045  RH  072%=      5-min Rain = 0
KGO1 191709Z 34024G30KT M00/M05 A3033 RMK A01 T10021045  RH  073%=      5-min Rain = 0
KGO1 191710Z 34024KT M00/M05 A3033 RMK A01 T10011045  RH  072%=      5-min Rain = 0
KGO1 191711Z 33021KT M00/M05 A3033 RMK A01 T10011045  RH  072%=      5-min Rain = 0
KGO1 191712Z 34021G27KT M00/M05 A3033 RMK A01 T10011045  RH  072%=      5-min Rain = 0
KGO1 191713Z 33020G26KT M00/M05 A3033 RMK A01 T10011045  RH  072%=      5-min Rain = 0
KGO1 191714Z 34015G20KT M00/M05 A3033 RMK A01 T10021045  RH  073%=      5-min Rain = 0
KGO1 191715Z 34017KT M00/M04 A3033 RMK A01 T10011043  RH  073%=      5-min Rain = 0
KGO1 191716Z 34018G23KT 00/M04 A3033 RMK A01 T00021042  RH  072%=      5-min Rain = 0
KGO1 191717Z 34022G28KT 00/M04 A3033 RMK A01 T00041042  RH  072%=      5-min Rain = 0
KGO1 191718Z 34020KT 00/M04 A3033 RMK A01 T00041043  RH  071%=      5-min Rain = 0
KGO1 191719Z 34022KT 00/M04 A3033 RMK A01 T00031043  RH  071%=      5-min Rain = 0
KGO1 191720Z 33022G28KT 00/M04 A3033 RMK A01 T00031043  RH  071%=      5-min Rain = 0
KGO1 191721Z 34024KT 00/M04 A3033 RMK A01 T00021044  RH  071%=      5-min Rain = 0
KGO1 191722Z 34024KT 00/M05 A3033 RMK A01 T00011045  RH  071%=      5-min Rain = 0
KGO1 191723Z 35021G28KT 00/M04 A3033 RMK A01 T00011044  RH  072%=      5-min Rain = 0
KGO1 191724Z 34020G26KT 00/M04 A3033 RMK A01 T00011044  RH  072%=      5-min Rain = 0
KGO1 191725Z 34017KT 00/M04 A3033 RMK A01 T00011043  RH  072%=      5-min Rain = 0
KGO1 191726Z 34018KT 00/M04 A3033 RMK A01 T00031042  RH  072%=      5-min Rain = 0
KGO1 191727Z 33018G24KT 00/M04 A3033 RMK A01 T00041042  RH  071%=      5-min Rain = 0
KGO1 191728Z 33018KT 01/M04 A3033 RMK A01 T00051042  RH  071%=      5-min Rain = 0
KGO1 191729Z 33018KT 01/M04 A3032 RMK A01 T00051041  RH  071%=      5-min Rain = 0
KGO1 191730Z 34019G27KT 01/M04 A3032 RMK A01 T00071040  RH  071%=      5-min Rain = 0
KGO1 191731Z 34022KT 01/M04 A3032 RMK A01 T00071042  RH  070%=      5-min Rain = 0
KGO1 191732Z 34020G25KT 01/M04 A3032 RMK A01 T00061042  RH  070%=      5-min Rain = 0
KGO1 191733Z 34020KT 01/M04 A3032 RMK A01 T00071041  RH  070%=      5-min Rain = 0
KGO1 191734Z 33023KT 01/M04 A3032 RMK A01 T00071041  RH  070%=      5-min Rain = 0
KGO1 191735Z 33021G26KT 01/M04 A3032 RMK A01 T00071042  RH  070%=      5-min Rain = 0
KGO1 191736Z 34018G24KT 01/M04 A3032 RMK A01 T00051043  RH  070%=      5-min Rain = 0
KGO1 191737Z 35017G22KT 01/M04 A3032 RMK A01 T00081039  RH  071%=      5-min Rain = 0
KGO1 191738Z 34023KT 01/M04 A3032 RMK A01 T00121038  RH  069%=      5-min Rain = 0
KGO1 191739Z 34022G28KT 01/M04 A3032 RMK A01 T00111040  RH  069%=      5-min Rain = 0
KGO1 191740Z 34023G28KT 01/M04 A3032 RMK A01 T00111040  RH  069%=      5-min Rain = 0
KGO1 191741Z 34018G23KT 01/M04 A3032 RMK A01 T00081043  RH  069%=      5-min Rain = 0
KGO1 191742Z 34018G24KT 01/M04 A3032 RMK A01 T00081041  RH  070%=      5-min Rain = 0
KGO1 191743Z 34019G24KT 01/M04 A3032 RMK A01 T00121037  RH  070%=      5-min Rain = 0
KGO1 191744Z 34020G25KT 01/M04 A3032 RMK A01 T00141038  RH  068%=      5-min Rain = 0
KGO1 191745Z 33021G27KT 01/M04 A3032 RMK A01 T00141039  RH  068%=      5-min Rain = 0
KGO1 191746Z 34023KT 01/M04 A3032 RMK A01 T00131040  RH  068%=      5-min Rain = 0
KGO1 191747Z 33023G28KT 01/M04 A3032 RMK A01 T00101043  RH  068%=      5-min Rain = 0
KGO1 191748Z 34021KT 01/M04 A3032 RMK A01 T00061044  RH  069%=      5-min Rain = 0
KGO1 191749Z 34022G27KT 01/M04 A3032 RMK A01 T00081040  RH  070%=      5-min Rain = 0
KGO1 191750Z 34020G27KT 01/M04 A3032 RMK A01 T00111039  RH  069%=      5-min Rain = 0
KGO1 191751Z 34017KT 01/M04 A3032 RMK A01 T00131038  RH  069%=      5-min Rain = 0
KGO1 191752Z 33024G29KT 02/M04 A3032 RMK A01 T00161038  RH  067%=      5-min Rain = 0
KGO1 191753Z 33019KT 01/M04 A3032 RMK A01 T00101044  RH  067%=      5-min Rain = 0
KGO1 191754Z 33020G25KT 01/M04 A3032 RMK A01 T00091042  RH  069%=      5-min Rain = 0
KGO1 191755Z 33017G23KT 01/M04 A3032 RMK A01 T00101040  RH  069%=      5-min Rain = 0
KGO1 191756Z 33021G26KT 01/M04 A3032 RMK A01 T00121039  RH  069%=      5-min Rain = 0
KGO1 191757Z 33022KT 01/M04 A3032 RMK A01 T00111040  RH  069%=      5-min Rain = 0
KGO1 191758Z 33024G29KT 01/M04 A3032 RMK A01 T00091041  RH  069%=      5-min Rain = 0
KGO1 191759Z 33022KT 01/M04 A3032 RMK A01 T00091041  RH  069%=      5-min Rain = 0
KGO1 191800Z 34024G29KT 01/M04 A3032 RMK A01 T00101039  RH  070%=      5-min Rain = 0
KGO1 191801Z 34022KT 01/M04 A3032 RMK A01 T00121039  RH  069%=      5-min Rain = 0
KGO1 191802Z 33019G24KT 01/M04 A3032 RMK A01 T00111041  RH  069%=      5-min Rain = 0
KGO1 191803Z 33019G25KT 01/M04 A3032 RMK A01 T00111039  RH  069%=      5-min Rain = 0
KGO1 191804Z 34019KT 01/M04 A3032 RMK A01 T00141037  RH  069%=      5-min Rain = 0
KGO1 191805Z 34020G26KT 02/M04 A3031 RMK A01 T00151037  RH  068%=      5-min Rain = 0
KGO1 191806Z 33019KT 02/M04 A3032 RMK A01 T00161038  RH  068%=      5-min Rain = 0
KGO1 191807Z 34019KT 01/M04 A3032 RMK A01 T00141040  RH  067%=      5-min Rain = 0
KGO1 191808Z 33018G24KT 01/M04 A3031 RMK A01 T00121041  RH  068%=      5-min Rain = 0
KGO1 191809Z 33021KT 01/M04 A3031 RMK A01 T00121040  RH  068%=      5-min Rain = 0
KGO1 191810Z 34021KT 01/M04 A3031 RMK A01 T00121040  RH  069%=      5-min Rain = 0
KGO1 191811Z 33021G27KT 01/M04 A3031 RMK A01 T00121041  RH  068%=      5-min Rain = 0
KGO1 191812Z 33018KT 01/M04 A3031 RMK A01 T00111039  RH  069%=      5-min Rain = 0
KGO1 191813Z 33023KT 02/M04 A3031 RMK A01 T00151036  RH  069%=      5-min Rain = 0
KGO1 191814Z 34023KT 02/M04 A3031 RMK A01 T00161038  RH  068%=      5-min Rain = 0
KGO1 191815Z 34021KT 01/M04 A3031 RMK A01 T00141039  RH  068%=      5-min Rain = 0
KGO1 191816Z 34019KT 02/M04 A3031 RMK A01 T00151038  RH  068%=      5-min Rain = 0
KGO1 191817Z 35019G25KT 02/M04 A3031 RMK A01 T00171036  RH  068%=      5-min Rain = 0
KGO1 191818Z 33019G26KT 02/M04 A3031 RMK A01 T00171038  RH  067%=      5-min Rain = 0
KGO1 191819Z 33019G26KT 02/M04 A3031 RMK A01 T00191036  RH  067%=      5-min Rain = 0
KGO1 191820Z 34019G24KT 02/M04 A3031 RMK A01 T00191038  RH  066%=      5-min Rain = 0
KGO1 191821Z 34022KT 02/M04 A3031 RMK A01 T00161041  RH  066%=      5-min Rain = 0
KGO1 191822Z 33023G29KT 01/M04 A3031 RMK A01 T00141040  RH  067%=      5-min Rain = 0
KGO1 191823Z 33022G29KT 02/M04 A3031 RMK A01 T00151038  RH  068%=      5-min Rain = 0
KGO1 191824Z 33023G28KT 02/M04 A3031 RMK A01 T00191035  RH  067%=      5-min Rain = 0
KGO1 191825Z 33023KT 02/M04 A3031 RMK A01 T00181038  RH  066%=      5-min Rain = 0
KGO1 191826Z 33021KT 02/M04 A3031 RMK A01 T00171039  RH  067%=      5-min Rain = 0
KGO1 191827Z 33020G25KT 02/M04 A3031 RMK A01 T00161038  RH  067%=      5-min Rain = 0
KGO1 191828Z 34021G27KT 02/M04 A3031 RMK A01 T00161038  RH  067%=      5-min Rain = 0
KGO1 191829Z 34019G25KT 02/M04 A303 RMK A01 T00151041  RH  067%=      5-min Rain = 0
KGO1 191830Z 34021KT 02/M04 A303 RMK A01 T00151039  RH  067%=      5-min Rain = 0
KGO1 191831Z 35021KT 02/M04 A3031 RMK A01 T00151039  RH  067%=      5-min Rain = 0
KGO1 191832Z 34018KT 02/M04 A303 RMK A01 T00151038  RH  068%=      5-min Rain = 0
KGO1 191833Z 33020G25KT 02/M04 A303 RMK A01 T00181035  RH  068%=      5-min Rain = 0
KGO1 191834Z 33020KT 02/M04 A303 RMK A01 T00201036  RH  066%=      5-min Rain = 0
KGO1 191835Z 33017G22KT 02/M04 A303 RMK A01 T00191037  RH  067%=      5-min Rain = 0
KGO1 191836Z 33020KT 02/M03 A303 RMK A01 T00221033  RH  067%=      5-min Rain = 0
KGO1 191837Z 32019G24KT 02/M03 A303 RMK A01 T00241034  RH  066%=      5-min Rain = 0
KGO1 191838Z 33020KT 02/M04 A303 RMK A01 T00221036  RH  065%=      5-min Rain = 0
KGO1 191839Z 34016G21KT 02/M04 A3031 RMK A01 T00211037  RH  065%=      5-min Rain = 0
KGO1 191840Z 34017KT 02/M04 A3031 RMK A01 T00191038  RH  066%=      5-min Rain = 0
KGO1 191841Z 33017KT 02/M04 A3031 RMK A01 T00191037  RH  066%=      5-min Rain = 0
KGO1 191842Z 34020KT 02/M04 A3031 RMK A01 T00201036  RH  066%=      5-min Rain = 0
KGO1 191843Z 34020KT 02/M04 A3031 RMK A01 T00181038  RH  067%=      5-min Rain = 0
KGO1 191844Z 34017KT 02/M04 A3031 RMK A01 T00171037  RH  067%=      5-min Rain = 0
KGO1 191845Z 32019G24KT 02/M03 A3031 RMK A01 T00191034  RH  068%=      5-min Rain = 0
KGO1 191846Z 33020KT 02/M04 A3031 RMK A01 T00191036  RH  067%=      5-min Rain = 0
KGO1 191847Z 34020KT 02/M04 A3031 RMK A01 T00171038  RH  067%=      5-min Rain = 0
KGO1 191848Z 33022G27KT 02/M04 A3031 RMK A01 T00161037  RH  068%=      5-min Rain = 0
KGO1 191849Z 34019KT 01/M04 A3031 RMK A01 T00141038  RH  068%=      5-min Rain = 0
KGO1 191850Z 34019KT 02/M03 A3031 RMK A01 T00171033  RH  069%=      5-min Rain = 0
KGO1 191851Z 34019KT 02/M03 A3031 RMK A01 T00211034  RH  067%=      5-min Rain = 0
KGO1 191852Z 32018G24KT 02/M04 A303 RMK A01 T00201036  RH  066%=      5-min Rain = 0
KGO1 191853Z 32021KT 02/M04 A303 RMK A01 T00181036  RH  067%=      5-min Rain = 0
KGO1 191854Z 33015G20KT 02/M03 A303 RMK A01 T00201033  RH  068%=      5-min Rain = 0
KGO1 191855Z 33017KT 02/M03 A303 RMK A01 T00241032  RH  066%=      5-min Rain = 0
KGO1 191856Z 34018G23KT 02/M04 A303 RMK A01 T00241035  RH  065%=      5-min Rain = 0
KGO1 191857Z 35018KT 02/M03 A303 RMK A01 T00231034  RH  066%=      5-min Rain = 0
KGO1 191858Z 34017KT 02/M03 A303 RMK A01 T00231034  RH  066%=      5-min Rain = 0
KGO1 191859Z 34015KT 02/M03 A303 RMK A01 T00241034  RH  066%=      5-min Rain = 0
KGO1 191900Z 33017G22KT 03/M03 A303 RMK A01 T00251034  RH  065%=      5-min Rain = 0
KGO1 191901Z 34016G23KT 03/M03 A303 RMK A01 T00261033  RH  065%=      5-min Rain = 0
KGO1 191902Z 33018KT 03/M03 A303 RMK A01 T00261033  RH  065%=      5-min Rain = 0
KGO1 191903Z 33020KT 03/M03 A303 RMK A01 T00271034  RH  064%=      5-min Rain = 0
KGO1 191904Z 34020KT 03/M04 A303 RMK A01 T00261035  RH  064%=      5-min Rain = 0
KGO1 191905Z 34017G22KT 03/M03 A303 RMK A01 T00251034  RH  065%=      5-min Rain = 0
KGO1 191906Z 33016KT 03/M03 A303 RMK A01 T00251033  RH  065%=      5-min Rain = 0
KGO1 191907Z 33019KT 03/M04 A303 RMK A01 T00251035  RH  064%=      5-min Rain = 0
KGO1 191908Z 33017KT 02/M04 A303 RMK A01 T00241035  RH  065%=      5-min Rain = 0
KGO1 191909Z 33014G20KT 03/M03 A303 RMK A01 T00251034  RH  065%=      5-min Rain = 0
KGO1 191910Z 34016G21KT 03/M03 A303 RMK A01 T00271032  RH  065%=      5-min Rain = 0
KGO1 191911Z 33017KT 03/M03 A303 RMK A01 T00271034  RH  064%=      5-min Rain = 0
KGO1 191912Z 33019KT 02/M04 A3029 RMK A01 T00241037  RH  064%=      5-min Rain = 0
KGO1 191913Z 33018KT 02/M04 A3029 RMK A01 T00241035  RH  065%=      5-min Rain = 0
KGO1 191914Z 32020KT 03/M03 A3029 RMK A01 T00271032  RH  065%=      5-min Rain = 0
KGO1 191915Z 33016KT 03/M03 A3029 RMK A01 T00281033  RH  064%=      5-min Rain = 0
KGO1 191916Z 34015KT 03/M03 A303 RMK A01 T00291033  RH  064%=      5-min Rain = 0
KGO1 191917Z 33014G19KT 03/M03 A3029 RMK A01 T00311031  RH  064%=      5-min Rain = 0
KGO1 191918Z 33017KT 03/M03 A3029 RMK A01 T00331030  RH  063%=      5-min Rain = 0
KGO1 191919Z 32017KT 03/M03 A3029 RMK A01 T00341031  RH  062%=      5-min Rain = 0
KGO1 191920Z 32015KT 03/M03 A3029 RMK A01 T00321033  RH  063%=      5-min Rain = 0
KGO1 191921Z 33015KT 03/M03 A3029 RMK A01 T00321031  RH  063%=      5-min Rain = 0
KGO1 191922Z 32017KT 03/M03 A3029 RMK A01 T00341030  RH  063%=      5-min Rain = 0
KGO1 191923Z 32016KT 04/M03 A3029 RMK A01 T00361029  RH  062%=      5-min Rain = 0
KGO1 191924Z 33017G24KT 04/M03 A3029 RMK A01 T00351031  RH  062%=      5-min Rain = 0
KGO1 191925Z 33018KT 03/M03 A3029 RMK A01 T00341031  RH  062%=      5-min Rain = 0
KGO1 191926Z 33017KT 03/M03 A3029 RMK A01 T00341031  RH  062%=      5-min Rain = 0
KGO1 191927Z 33013G18KT 03/M03 A3028 RMK A01 T00341031  RH  063%=      5-min Rain = 0
KGO1 191928Z 34018KT 04/M03 A3028 RMK A01 T00361029  RH  062%=      5-min Rain = 0
KGO1 191929Z 34017KT 03/M03 A3028 RMK A01 T00341033  RH  062%=      5-min Rain = 0
KGO1 191930Z 33018KT 03/M03 A3028 RMK A01 T00321032  RH  063%=      5-min Rain = 0
KGO1 191931Z 33016KT 03/M03 A3028 RMK A01 T00331031  RH  063%=      5-min Rain = 0
KGO1 191932Z 32015G21KT 03/M03 A3028 RMK A01 T00311032  RH  063%=      5-min Rain = 0
KGO1 191933Z 32017KT 03/M03 A3028 RMK A01 T00311032  RH  063%=      5-min Rain = 0
KGO1 191934Z 34015KT 03/M03 A3028 RMK A01 T00311032  RH  063%=      5-min Rain = 0
KGO1 191935Z 33015G21KT 03/M03 A3028 RMK A01 T00311032  RH  064%=      5-min Rain = 0
KGO1 191936Z 34016KT 03/M03 A3028 RMK A01 T00331030  RH  063%=      5-min Rain = 0
KGO1 191937Z 34015G20KT 03/M03 A3028 RMK A01 T00331031  RH  063%=      5-min Rain = 0
KGO1 191938Z 34018G23KT 03/M03 A3028 RMK A01 T00331030  RH  064%=      5-min Rain = 0
KGO1 191939Z 32013KT 03/M03 A3028 RMK A01 T00341030  RH  063%=      5-min Rain = 0
KGO1 191940Z 32020KT 03/M03 A3028 RMK A01 T00341030  RH  063%=      5-min Rain = 0
KGO1 191941Z 33017KT 04/M03 A3028 RMK A01 T00351031  RH  062%=      5-min Rain = 0
KGO1 191942Z 32017KT 04/M03 A3028 RMK A01 T00371028  RH  062%=      5-min Rain = 0
KGO1 191943Z 33019KT 04/M03 A3028 RMK A01 T00391030  RH  061%=      5-min Rain = 0
KGO1 191944Z 33017KT 04/M03 A3028 RMK A01 T00361032  RH  061%=      5-min Rain = 0
KGO1 191945Z 33017KT 04/M03 A3028 RMK A01 T00361031  RH  062%=      5-min Rain = 0
KGO1 191946Z 34017KT 04/M03 A3028 RMK A01 T00361031  RH  062%=      5-min Rain = 0
KGO1 191947Z 34016KT 03/M03 A3028 RMK A01 T00341033  RH  062%=      5-min Rain = 0
KGO1 191948Z 34015KT 03/M03 A3028 RMK A01 T00311032  RH  063%=      5-min Rain = 0
KGO1 191949Z 34016KT 03/M03 A3028 RMK A01 T00341028  RH  063%=      5-min Rain = 0
KGO1 191950Z 33019G25KT 04/M03 A3028 RMK A01 T00361028  RH  063%=      5-min Rain = 0
KGO1 191951Z 34021G26KT 04/M03 A3028 RMK A01 T00381030  RH  061%=      5-min Rain = 0
KGO1 191952Z 34019KT 04/M03 A3028 RMK A01 T00351032  RH  061%=      5-min Rain = 0
KGO1 191953Z 33018KT 04/M03 A3028 RMK A01 T00351031  RH  062%=      5-min Rain = 0
KGO1 191954Z 33020KT 04/M03 A3027 RMK A01 T00361030  RH  062%=      5-min Rain = 0
KGO1 191955Z 33018KT 03/M03 A3027 RMK A01 T00331032  RH  062%=      5-min Rain = 0
KGO1 191956Z 33016G21KT 03/M03 A3027 RMK A01 T00321032  RH  063%=      5-min Rain = 0
KGO1 191957Z 33014KT 03/M03 A3027 RMK A01 T00341029  RH  063%=      5-min Rain = 0
KGO1 191958Z 34016KT 04/M03 A3027 RMK A01 T00401026  RH  062%=      5-min Rain = 0
KGO1 191959Z 34017KT 04/M03 A3027 RMK A01 T00421027  RH  061%=      5-min Rain = 0
KGO1 192000Z 33017KT 04/M03 A3027 RMK A01 T00411029  RH  060%=      5-min Rain = 0
KGO1 192001Z 34018KT 04/M03 A3027 RMK A01 T00391029  RH  061%=      5-min Rain = 0
KGO1 192002Z 33019KT 04/M03 A3027 RMK A01 T00401029  RH  060%=      5-min Rain = 0
KGO1 192003Z 34017KT 04/M03 A3027 RMK A01 T00391031  RH  060%=      5-min Rain = 0
KGO1 192004Z 34019KT 04/M03 A3027 RMK A01 T00391030  RH  061%=      5-min Rain = 0
KGO1 192005Z 35017KT 04/M03 A3027 RMK A01 T00391029  RH  061%=      5-min Rain = 0
KGO1 192006Z 35015G20KT 04/M03 A3027 RMK A01 T00401029  RH  061%=      5-min Rain = 0
KGO1 192007Z 34017KT 04/M03 A3027 RMK A01 T00391028  RH  061%=      5-min Rain = 0
KGO1 192008Z 33018KT 04/M03 A3027 RMK A01 T00401028  RH  061%=      5-min Rain = 0
KGO1 192009Z 33018KT 04/M03 A3027 RMK A01 T00401028  RH  061%=      5-min Rain = 0
KGO1 192010Z 33017KT 04/M03 A3027 RMK A01 T00401028  RH  061%=      5-min Rain = 0
KGO1 192011Z 33016KT 04/M03 A3026 RMK A01 T00401029  RH  061%=      5-min Rain = 0
KGO1 192012Z 32015KT 04/M03 A3027 RMK A01 T00391028  RH  062%=      5-min Rain = 0
KGO1 192013Z 33016KT 04/M03 A3027 RMK A01 T00411026  RH  062%=      5-min Rain = 0
KGO1 192014Z 32018KT 04/M03 A3026 RMK A01 T00411027  RH  061%=      5-min Rain = 0
KGO1 192015Z 33015KT 04/M03 A3026 RMK A01 T00421027  RH  061%=      5-min Rain = 0
KGO1 192016Z 32018G23KT 04/M03 A3026 RMK A01 T00441025  RH  061%=      5-min Rain = 0
KGO1 192017Z 33016KT 04/M03 A3026 RMK A01 T00431026  RH  061%=      5-min Rain = 0
KGO1 192018Z 34018KT 04/M03 A3026 RMK A01 T00421027  RH  061%=      5-min Rain = 0
KGO1 192019Z 33019KT 04/M03 A3026 RMK A01 T00421027  RH  061%=      5-min Rain = 0
KGO1 192020Z 34016KT 04/M03 A3026 RMK A01 T00421027  RH  061%=      5-min Rain = 0
KGO1 192021Z 34018KT 05/M03 A3026 RMK A01 T00451026  RH  060%=      5-min Rain = 0
KGO1 192022Z 34018KT 05/M03 A3026 RMK A01 T00451025  RH  060%=      5-min Rain = 0
KGO1 192023Z 34017KT 04/M03 A3026 RMK A01 T00421027  RH  061%=      5-min Rain = 0
KGO1 192024Z 33015KT 04/M03 A3026 RMK A01 T00411026  RH  062%=      5-min Rain = 0
KGO1 192025Z 33013KT 04/M02 A3026 RMK A01 T00431022  RH  062%=      5-min Rain = 0
KGO1 192026Z 34017KT 05/M02 A3026 RMK A01 T00471022  RH  061%=      5-min Rain = 0
KGO1 192027Z 34015G24KT 05/M02 A3026 RMK A01 T00471024  RH  060%=      5-min Rain = 0
KGO1 192028Z 33020KT 05/M03 A3026 RMK A01 T00471025  RH  060%=      5-min Rain = 0
KGO1 192029Z 34016KT 05/M03 A3026 RMK A01 T00461026  RH  060%=      5-min Rain = 0
KGO1 192030Z 32016G21KT 05/M02 A3026 RMK A01 T00471024  RH  060%=      5-min Rain = 0
KGO1 192031Z 33016KT 05/M03 A3026 RMK A01 T00481025  RH  059%=      5-min Rain = 0
KGO1 192032Z 33015KT 05/M03 A3026 RMK A01 T00481025  RH  059%=      5-min Rain = 0
KGO1 192033Z 33016G21KT 05/M02 A3026 RMK A01 T00511023  RH  059%=      5-min Rain = 0
KGO1 192034Z 34017KT 05/M03 A3026 RMK A01 T00521025  RH  058%=      5-min Rain = 0
KGO1 192035Z 34012G18KT 05/M03 A3026 RMK A01 T00511025  RH  058%=      5-min Rain = 0
KGO1 192036Z 32018KT 05/M02 A3026 RMK A01 T00541023  RH  058%=      5-min Rain = 0
KGO1 192037Z 32017KT 05/M03 A3026 RMK A01 T00511026  RH  057%=      5-min Rain = 0
KGO1 192038Z 32016KT 05/M03 A3025 RMK A01 T00491025  RH  059%=      5-min Rain = 0
KGO1 192039Z 33019KT 05/M02 A3025 RMK A01 T00491024  RH  059%=      5-min Rain = 0
KGO1 192040Z 33016KT 05/M03 A3025 RMK A01 T00481026  RH  059%=      5-min Rain = 0
KGO1 192041Z 33016KT 05/M03 A3026 RMK A01 T00491025  RH  059%=      5-min Rain = 0
KGO1 192042Z 33017KT 05/M03 A3025 RMK A01 T00501025  RH  059%=      5-min Rain = 0
KGO1 192043Z 34014KT 05/M03 A3026 RMK A01 T00501025  RH  059%=      5-min Rain = 0
KGO1 192044Z 33013KT 05/M02 A3026 RMK A01 T00521022  RH  059%=      5-min Rain = 0
KGO1 192045Z 33016G21KT 05/M02 A3026 RMK A01 T00541023  RH  058%=      5-min Rain = 0
KGO1 192046Z 34018KT 05/M03 A3026 RMK A01 T00531026  RH  057%=      5-min Rain = 0
KGO1 192047Z 35016G21KT 05/M03 A3026 RMK A01 T00521026  RH  057%=      5-min Rain = 0
KGO1 192048Z 34019KT 05/M03 A3026 RMK A01 T00531026  RH  057%=      5-min Rain = 0
KGO1 192049Z 34020KT 06/M03 A3026 RMK A01 T00551026  RH  056%=      5-min Rain = 0
KGO1 192050Z 33020KT 05/M03 A3026 RMK A01 T00521029  RH  056%=      5-min Rain = 0
KGO1 192051Z 33018KT 05/M03 A3026 RMK A01 T00501028  RH  057%=      5-min Rain = 0
KGO1 192052Z 33015KT 05/M03 A3026 RMK A01 T00481027  RH  058%=      5-min Rain = 0
KGO1 192053Z 33018KT 05/M03 A3026 RMK A01 T00481026  RH  058%=      5-min Rain = 0
KGO1 192054Z 33015KT 05/M03 A3026 RMK A01 T00481026  RH  059%=      5-min Rain = 0
KGO1 192055Z 33015G20KT 05/M03 A3026 RMK A01 T00491025  RH  059%=      5-min Rain = 0
KGO1 192056Z 33017KT 05/M03 A3026 RMK A01 T00521025  RH  058%=      5-min Rain = 0
KGO1 192057Z 33018KT 05/M03 A3026 RMK A01 T00531026  RH  057%=      5-min Rain = 0
KGO1 192058Z 32017KT 05/M03 A3025 RMK A01 T00531027  RH  056%=      5-min Rain = 0
KGO1 192059Z 33019KT 06/M03 A3026 RMK A01 T00551026  RH  056%=      5-min Rain = 0
KGO1 192100Z 33016G21KT 06/M03 A3026 RMK A01 T00561027  RH  055%=      5-min Rain = 0
KGO1 192101Z 34016KT 05/M03 A3026 RMK A01 T00531026  RH  057%=      5-min Rain = 0
KGO1 192102Z 33019KT 05/M03 A3026 RMK A01 T00531026  RH  057%=      5-min Rain = 0
KGO1 192103Z 33017KT 05/M03 A3026 RMK A01 T00521027  RH  056%=      5-min Rain = 0
KGO1 192104Z 34018KT 05/M03 A3026 RMK A01 T00531027  RH  056%=      5-min Rain = 0
KGO1 192105Z 34018KT 05/M03 A3026 RMK A01 T00541027  RH  056%=      5-min Rain = 0
KGO1 192106Z 34019G24KT 06/M03 A3026 RMK A01 T00551027  RH  055%=      5-min Rain = 0
KGO1 192107Z 33018KT 06/M03 A3026 RMK A01 T00551027  RH  055%=      5-min Rain = 0
KGO1 192108Z 34015KT 05/M03 A3026 RMK A01 T00541028  RH  056%=      5-min Rain = 0
KGO1 192109Z 34014KT 05/M03 A3026 RMK A01 T00541026  RH  057%=      5-min Rain = 0
KGO1 192110Z 34014KT 06/M03 A3026 RMK A01 T00561025  RH  056%=      5-min Rain = 0
KGO1 192111Z 33012KT 06/M02 A3026 RMK A01 T00581023  RH  056%=      5-min Rain = 0
KGO1 192112Z 33012KT 06/M02 A3026 RMK A01 T00621021  RH  055%=      5-min Rain = 0
KGO1 192113Z 34016KT 06/M02 A3026 RMK A01 T00631023  RH  054%=      5-min Rain = 0
KGO1 192114Z 33014KT 06/M03 A3026 RMK A01 T00601025  RH  054%=      5-min Rain = 0
KGO1 192115Z 33013KT 06/M03 A3026 RMK A01 T00601025  RH  054%=      5-min Rain = 0
KGO1 192116Z 33014KT 06/M03 A3026 RMK A01 T00621025  RH  054%=      5-min Rain = 0
KGO1 192117Z 33015KT 06/M03 A3026 RMK A01 T00621026  RH  054%=      5-min Rain = 0
KGO1 192118Z 33010KT 06/M03 A3026 RMK A01 T00591027  RH  054%=      5-min Rain = 0
KGO1 192119Z 33016KT 06/M03 A3026 RMK A01 T00611025  RH  054%=      5-min Rain = 0
KGO1 192120Z 34014KT 06/M03 A3026 RMK A01 T00621025  RH  054%=      5-min Rain = 0
KGO1 192121Z 32013KT 06/M03 A3026 RMK A01 T00621025  RH  054%=      5-min Rain = 0
KGO1 192122Z 33014G19KT 06/M03 A3026 RMK A01 T00601026  RH  054%=      5-min Rain = 0
KGO1 192123Z 33017KT 06/M03 A3026 RMK A01 T00581028  RH  054%=      5-min Rain = 0
KGO1 192124Z 34014KT 06/M03 A3027 RMK A01 T00581029  RH  054%=      5-min Rain = 0
KGO1 192125Z 35015KT 06/M03 A3027 RMK A01 T00581028  RH  054%=      5-min Rain = 0
KGO1 192126Z 35015KT 06/M03 A3027 RMK A01 T00581028  RH  054%=      5-min Rain = 0
KGO1 192127Z 34012KT 06/M03 A3027 RMK A01 T00581028  RH  054%=      5-min Rain = 0
KGO1 192128Z 35013KT 06/M03 A3027 RMK A01 T00581028  RH  054%=      5-min Rain = 0
KGO1 192129Z 33014KT 06/M03 A3027 RMK A01 T00601026  RH  054%=      5-min Rain = 0
KGO1 192130Z 32013KT 06/M03 A3027 RMK A01 T00611027  RH  053%=      5-min Rain = 0
KGO1 192131Z 32015KT 06/M03 A3027 RMK A01 T00591028  RH  053%=      5-min Rain = 0
KGO1 192132Z 32015KT 06/M03 A3027 RMK A01 T00591028  RH  054%=      5-min Rain = 0
KGO1 192133Z 33014KT 06/M03 A3027 RMK A01 T00581028  RH  054%=      5-min Rain = 0
KGO1 192134Z 33014KT 06/M03 A3027 RMK A01 T00591027  RH  054%=      5-min Rain = 0
KGO1 192135Z 33012KT 06/M03 A3027 RMK A01 T00591028  RH  054%=      5-min Rain = 0
KGO1 192136Z 34012KT 06/M03 A3027 RMK A01 T00581027  RH  054%=      5-min Rain = 0
KGO1 192137Z 34011KT 06/M03 A3027 RMK A01 T00591026  RH  054%=      5-min Rain = 0
KGO1 192138Z 32011KT 06/M03 A3027 RMK A01 T00591026  RH  054%=      5-min Rain = 0
KGO1 192139Z 32013KT 06/M03 A3027 RMK A01 T00601027  RH  054%=      5-min Rain = 0
KGO1 192140Z 33014G19KT 06/M03 A3027 RMK A01 T00591029  RH  053%=      5-min Rain = 0
KGO1 192141Z 33014KT 06/M03 A3027 RMK A01 T00591029  RH  053%=      5-min Rain = 0
KGO1 192142Z 33013KT 06/M03 A3027 RMK A01 T00591029  RH  053%=      5-min Rain = 0
KGO1 192143Z 33014KT 06/M03 A3027 RMK A01 T00591029  RH  053%=      5-min Rain = 0
KGO1 192144Z 33015KT 06/M03 A3027 RMK A01 T00581030  RH  053%=      5-min Rain = 0
KGO1 192145Z 33014KT 06/M03 A3027 RMK A01 T00581029  RH  054%=      5-min Rain = 0
KGO1 192146Z 33013KT 06/M03 A3027 RMK A01 T00581029  RH  054%=      5-min Rain = 0
KGO1 192147Z 33010KT 06/M03 A3027 RMK A01 T00571028  RH  054%=      5-min Rain = 0
KGO1 192148Z 34012KT 06/M03 A3027 RMK A01 T00581027  RH  054%=      5-min Rain = 0
KGO1 192149Z 33012KT 06/M03 A3027 RMK A01 T00591028  RH  054%=      5-min Rain = 0
KGO1 192150Z 32015KT 06/M03 A3027 RMK A01 T00601028  RH  053%=      5-min Rain = 0
KGO1 192151Z 33015KT 06/M03 A3027 RMK A01 T00601029  RH  052%=      5-min Rain = 0
KGO1 192152Z 34012KT 06/M03 A3027 RMK A01 T00591030  RH  053%=      5-min Rain = 0
KGO1 192153Z 34012KT 06/M03 A3027 RMK A01 T00581030  RH  053%=      5-min Rain = 0
KGO1 192154Z 34013KT 06/M03 A3027 RMK A01 T00581030  RH  053%=      5-min Rain = 0
KGO1 192155Z 34013KT 06/M03 A3027 RMK A01 T00591031  RH  053%=      5-min Rain = 0
KGO1 192156Z 34014KT 06/M03 A3027 RMK A01 T00591031  RH  052%=      5-min Rain = 0
KGO1 192157Z 34013G18KT 06/M03 A3027 RMK A01 T00581032  RH  052%=      5-min Rain = 0
KGO1 192158Z 34015KT 06/M03 A3027 RMK A01 T00581032  RH  052%=      5-min Rain = 0
KGO1 192159Z 33012KT 06/M03 A3027 RMK A01 T00581032  RH  052%=      5-min Rain = 0
KGO1 192200Z 34009KT 06/M03 A3027 RMK A01 T00581031  RH  053%=      5-min Rain = 0
KGO1 192201Z 35014KT 06/M03 A3027 RMK A01 T00591031  RH  052%=      5-min Rain = 0
KGO1 192202Z 35015KT 06/M03 A3027 RMK A01 T00591033  RH  051%=      5-min Rain = 0
KGO1 192203Z 34015G20KT 06/M03 A3027 RMK A01 T00581033  RH  052%=      5-min Rain = 0
KGO1 192204Z 33014KT 06/M03 A3027 RMK A01 T00591032  RH  052%=      5-min Rain = 0
KGO1 192205Z 34014KT 06/M03 A3027 RMK A01 T00581031  RH  053%=      5-min Rain = 0
KGO1 192206Z 33015KT 06/M03 A3027 RMK A01 T00571031  RH  053%=      5-min Rain = 0
KGO1 192207Z 34012KT 06/M03 A3027 RMK A01 T00581031  RH  053%=      5-min Rain = 0
KGO1 192208Z 34012KT 06/M03 A3027 RMK A01 T00591032  RH  052%=      5-min Rain = 0
KGO1 192209Z 35011KT 06/M03 A3027 RMK A01 T00611032  RH  051%=      5-min Rain = 0
KGO1 192210Z 34011KT 06/M03 A3027 RMK A01 T00621031  RH  051%=      5-min Rain = 0
KGO1 192211Z 33013KT 06/M03 A3027 RMK A01 T00631031  RH  051%=      5-min Rain = 0
KGO1 192212Z 33013KT 06/M03 A3027 RMK A01 T00631032  RH  051%=      5-min Rain = 0
KGO1 192213Z 33012KT 06/M03 A3027 RMK A01 T00621033  RH  051%=      5-min Rain = 0
KGO1 192214Z 33013KT 06/M03 A3027 RMK A01 T00621032  RH  051%=      5-min Rain = 0
KGO1 192215Z 33012KT 06/M03 A3027 RMK A01 T00621033  RH  051%=      5-min Rain = 0
KGO1 192216Z 33013G18KT 06/M03 A3027 RMK A01 T00611032  RH  051%=      5-min Rain = 0
KGO1 192217Z 33014KT 06/M03 A3027 RMK A01 T00611031  RH  052%=      5-min Rain = 0
KGO1 192218Z 34014KT 06/M03 A3027 RMK A01 T00601030  RH  052%=      5-min Rain = 0
KGO1 192219Z 33015KT 06/M03 A3027 RMK A01 T00591030  RH  053%=      5-min Rain = 0
KGO1 192220Z 33013KT 06/M03 A3027 RMK A01 T00591031  RH  053%=      5-min Rain = 0
KGO1 192221Z 33013KT 06/M03 A3027 RMK A01 T00601030  RH  052%=      5-min Rain = 0
KGO1 192222Z 34014KT 06/M03 A3027 RMK A01 T00601031  RH  052%=      5-min Rain = 0
KGO1 192223Z 33013KT 06/M03 A3027 RMK A01 T00591032  RH  052%=      5-min Rain = 0
KGO1 192224Z 33013KT 06/M03 A3027 RMK A01 T00591033  RH  052%=      5-min Rain = 0
KGO1 192225Z 34015KT 06/M03 A3027 RMK A01 T00591032  RH  052%=      5-min Rain = 0
KGO1 192226Z 35013KT 06/M03 A3027 RMK A01 T00591032  RH  052%=      5-min Rain = 0
KGO1 192227Z 35014KT 06/M03 A3027 RMK A01 T00591032  RH  052%=      5-min Rain = 0
KGO1 192228Z 34014KT 06/M03 A3027 RMK A01 T00591031  RH  052%=      5-min Rain = 0
KGO1 192229Z 34014KT 06/M03 A3027 RMK A01 T00581032  RH  052%=      5-min Rain = 0
KGO1 192230Z 33013KT 06/M03 A3027 RMK A01 T00581031  RH  053%=      5-min Rain = 0
KGO1 192231Z 34013KT 06/M03 A3027 RMK A01 T00581032  RH  053%=      5-min Rain = 0
KGO1 192232Z 34013KT 06/M03 A3027 RMK A01 T00571032  RH  053%=      5-min Rain = 0
KGO1 192233Z 33011KT 06/M03 A3027 RMK A01 T00571031  RH  053%=      5-min Rain = 0
KGO1 192234Z 32012KT 06/M03 A3027 RMK A01 T00581030  RH  053%=      5-min Rain = 0
KGO1 192235Z 32015KT 06/M03 A3027 RMK A01 T00591031  RH  053%=      5-min Rain = 0
KGO1 192236Z 32013KT 06/M03 A3027 RMK A01 T00581031  RH  053%=      5-min Rain = 0
KGO1 192237Z 32014KT 06/M03 A3027 RMK A01 T00581031  RH  053%=      5-min Rain = 0
KGO1 192238Z 32012KT 06/M03 A3027 RMK A01 T00581031  RH  053%=      5-min Rain = 0
KGO1 192239Z 33014KT 06/M03 A3027 RMK A01 T00581031  RH  053%=      5-min Rain = 0
KGO1 192240Z 33014KT 06/M03 A3027 RMK A01 T00581032  RH  052%=      5-min Rain = 0
KGO1 192241Z 33014KT 06/M03 A3027 RMK A01 T00571032  RH  052%=      5-min Rain = 0
KGO1 192242Z 33014KT 06/M03 A3027 RMK A01 T00561033  RH  053%=      5-min Rain = 0
KGO1 192243Z 33014KT 06/M03 A3027 RMK A01 T00561034  RH  052%=      5-min Rain = 0
KGO1 192244Z 33013KT 06/M03 A3027 RMK A01 T00551034  RH  052%=      5-min Rain = 0
KGO1 192245Z 34011KT 05/M04 A3027 RMK A01 T00541035  RH  053%=      5-min Rain = 0
KGO1 192246Z 34011KT 06/M03 A3027 RMK A01 T00551034  RH  053%=      5-min Rain = 0
KGO1 192247Z 34013KT 06/M03 A3027 RMK A01 T00551033  RH  053%=      5-min Rain = 0
KGO1 192248Z 34010KT 06/M03 A3027 RMK A01 T00551033  RH  053%=      5-min Rain = 0
KGO1 192249Z 33012KT 06/M03 A3027 RMK A01 T00561032  RH  053%=      5-min Rain = 0
KGO1 192250Z 32013KT 06/M03 A3027 RMK A01 T00561033  RH  053%=      5-min Rain = 0
KGO1 192251Z 32011KT 06/M03 A3027 RMK A01 T00561033  RH  053%=      5-min Rain = 0
KGO1 192252Z 33011KT 06/M03 A3027 RMK A01 T00561033  RH  053%=      5-min Rain = 0
KGO1 192253Z 33013KT 06/M03 A3027 RMK A01 T00561033  RH  053%=      5-min Rain = 0
KGO1 192254Z 33012KT 06/M03 A3027 RMK A01 T00561033  RH  053%=      5-min Rain = 0
KGO1 192255Z 33011KT 06/M03 A3027 RMK A01 T00551034  RH  053%=      5-min Rain = 0
KGO1 192256Z 33011KT 06/M04 A3027 RMK A01 T00551035  RH  052%=      5-min Rain = 0
KGO1 192257Z 33010KT 06/M04 A3027 RMK A01 T00551036  RH  052%=      5-min Rain = 0
KGO1 192258Z 32009KT 05/M04 A3027 RMK A01 T00541035  RH  053%=      5-min Rain = 0
KGO1 192259Z 33008KT 06/M03 A3027 RMK A01 T00551034  RH  053%=      5-min Rain = 0
KGO1 192300Z 33011KT 06/M03 A3027 RMK A01 T00551033  RH  053%=      5-min Rain = 0
KGO1 192301Z 33009KT 06/M03 A3027 RMK A01 T00551033  RH  053%=      5-min Rain = 0
KGO1 192302Z 33009KT 06/M03 A3027 RMK A01 T00551033  RH  053%=      5-min Rain = 0
KGO1 192303Z 33011KT 06/M03 A3027 RMK A01 T00551034  RH  053%=      5-min Rain = 0
KGO1 192304Z 33010KT 06/M04 A3027 RMK A01 T00551035  RH  053%=      5-min Rain = 0
KGO1 192305Z 33010KT 05/M03 A3027 RMK A01 T00541034  RH  053%=      5-min Rain = 0
KGO1 192306Z 33009KT 05/M03 A3027 RMK A01 T00541034  RH  053%=      5-min Rain = 0
KGO1 192307Z 33009KT 05/M03 A3027 RMK A01 T00531033  RH  053%=      5-min Rain = 0
KGO1 192308Z 33010KT 05/M03 A3027 RMK A01 T00531033  RH  054%=      5-min Rain = 0
KGO1 192309Z 33009KT 05/M03 A3027 RMK A01 T00531033  RH  054%=      5-min Rain = 0
KGO1 192310Z 34007KT 05/M03 A3027 RMK A01 T00531033  RH  054%=      5-min Rain = 0
KGO1 192311Z 33007KT 05/M03 A3028 RMK A01 T00531032  RH  054%=      5-min Rain = 0
KGO1 192312Z 33009KT 05/M03 A3028 RMK A01 T00531032  RH  054%=      5-min Rain = 0
KGO1 192313Z 33010KT 05/M03 A3028 RMK A01 T00531033  RH  054%=      5-min Rain = 0
KGO1 192314Z 33009KT 05/M03 A3028 RMK A01 T00531033  RH  054%=      5-min Rain = 0
KGO1 192315Z 33009KT 05/M03 A3028 RMK A01 T00521034  RH  054%=      5-min Rain = 0
KGO1 192316Z 32009KT 05/M03 A3028 RMK A01 T00531033  RH  054%=      5-min Rain = 0
KGO1 192317Z 32009KT 05/M03 A3028 RMK A01 T00531033  RH  054%=      5-min Rain = 0
KGO1 192318Z 32007KT 05/M03 A3028 RMK A01 T00521033  RH  054%=      5-min Rain = 0
KGO1 192319Z 33007KT 05/M03 A3028 RMK A01 T00521033  RH  054%=      5-min Rain = 0
KGO1 192320Z 33009KT 05/M03 A3028 RMK A01 T00521033  RH  054%=      5-min Rain = 0
KGO1 192321Z 33009KT 05/M03 A3028 RMK A01 T00521033  RH  054%=      5-min Rain = 0
KGO1 192322Z 33010KT 05/M03 A3028 RMK A01 T00511034  RH  054%=      5-min Rain = 0
KGO1 192323Z 33010KT 05/M03 A3028 RMK A01 T00511034  RH  054%=      5-min Rain = 0
KGO1 192324Z 33009KT 05/M03 A3028 RMK A01 T00511034  RH  054%=      5-min Rain = 0
KGO1 192325Z 33008KT 05/M03 A3028 RMK A01 T00501034  RH  054%=      5-min Rain = 0
KGO1 192326Z 33008KT 05/M03 A3028 RMK A01 T00501034  RH  055%=      5-min Rain = 0
KGO1 192327Z 33009KT 05/M03 A3028 RMK A01 T00501034  RH  055%=      5-min Rain = 0
KGO1 192328Z 33009KT 05/M03 A3028 RMK A01 T00501034  RH  055%=      5-min Rain = 0
KGO1 192329Z 34009KT 05/M03 A3028 RMK A01 T00491034  RH  055%=      5-min Rain = 0
KGO1 192330Z 33009KT 05/M03 A3028 RMK A01 T00491034  RH  055%=      5-min Rain = 0
KGO1 192331Z 33010KT 05/M03 A3028 RMK A01 T00481034  RH  055%=      5-min Rain = 0
KGO1 192332Z 33010KT 05/M04 A3028 RMK A01 T00481035  RH  055%=      5-min Rain = 0
KGO1 192333Z 33010KT 05/M04 A3028 RMK A01 T00471035  RH  056%=      5-min Rain = 0
KGO1 192334Z 33010KT 05/M04 A3028 RMK A01 T00461035  RH  056%=      5-min Rain = 0
KGO1 192335Z 33009KT 05/M04 A3028 RMK A01 T00461035  RH  056%=      5-min Rain = 0
KGO1 192336Z 32008KT 05/M04 A3028 RMK A01 T00451035  RH  056%=      5-min Rain = 0
KGO1 192337Z 32007KT 05/M04 A3028 RMK A01 T00451035  RH  056%=      5-min Rain = 0
KGO1 192338Z 33007KT 04/M04 A3028 RMK A01 T00441035  RH  056%=      5-min Rain = 0
KGO1 192339Z 32007KT 04/M04 A3028 RMK A01 T00431035  RH  057%=      5-min Rain = 0
KGO1 192340Z 33006KT 04/M04 A3028 RMK A01 T00431035  RH  057%=      5-min Rain = 0
KGO1 192341Z 33006KT 04/M04 A3028 RMK A01 T00421036  RH  057%=      5-min Rain = 0
KGO1 192342Z 33007KT 04/M04 A3028 RMK A01 T00411036  RH  057%=      5-min Rain = 0
KGO1 192343Z 33007KT 04/M04 A3028 RMK A01 T00411035  RH  058%=      5-min Rain = 0
KGO1 192344Z 33007KT 04/M04 A3028 RMK A01 T00401036  RH  058%=      5-min Rain = 0
KGO1 192345Z 33007KT 04/M04 A3028 RMK A01 T00391036  RH  058%=      5-min Rain = 0
KGO1 192346Z 33008KT 04/M04 A3028 RMK A01 T00381036  RH  058%=      5-min Rain = 0
KGO1 192347Z 33007KT 04/M04 A3028 RMK A01 T00371036  RH  059%=      5-min Rain = 0
KGO1 192348Z 33007KT 04/M04 A3028 RMK A01 T00371036  RH  059%=      5-min Rain = 0
KGO1 192349Z 33007KT 04/M04 A3028 RMK A01 T00361036  RH  059%=      5-min Rain = 0
KGO1 192350Z 33007KT 04/M04 A3028 RMK A01 T00351036  RH  059%=      5-min Rain = 0
KGO1 192351Z 33007KT 03/M04 A3028 RMK A01 T00341037  RH  060%=      5-min Rain = 0
KGO1 192352Z 33006KT 03/M04 A3028 RMK A01 T00341037  RH  060%=      5-min Rain = 0
KGO1 192353Z 32006KT 03/M04 A3028 RMK A01 T00321037  RH  060%=      5-min Rain = 0
KGO1 192354Z 32006KT 03/M04 A3028 RMK A01 T00311038  RH  061%=      5-min Rain = 0
KGO1 192355Z 32006KT 03/M04 A3028 RMK A01 T00301038  RH  061%=      5-min Rain = 0
KGO1 192356Z 32006KT 03/M04 A3028 RMK A01 T00281039  RH  061%=      5-min Rain = 0
KGO1 192357Z 32006KT 03/M04 A3028 RMK A01 T00261040  RH  062%=      5-min Rain = 0
KGO1 192358Z 32006KT 03/M04 A3028 RMK A01 T00251040  RH  062%=      5-min Rain = 0
KGO1 192359Z 32006KT 02/M04 A3028 RMK A01 T00241040  RH  063%=      5-min Rain = 0
KGO1 200000Z 32006KT 02/M04 A3028 RMK A01 T00231040  RH  063%=      5-min Rain = 0
KGO1 200001Z 32005KT 02/M04 A3028 RMK A01 T00221040  RH  064%=      5-min Rain = 0
KGO1 200002Z 31005KT 02/M04 A3028 RMK A01 T00211040  RH  064%=      5-min Rain = 0
KGO1 200003Z 31005KT 02/M04 A3028 RMK A01 T00211040  RH  064%=      5-min Rain = 0
KGO1 200004Z 31006KT 02/M04 A3028 RMK A01 T00211040  RH  064%=      5-min Rain = 0
KGO1 200005Z 31005KT 02/M04 A3028 RMK A01 T00201040  RH  064%=      5-min Rain = 0
KGO1 200006Z 31005KT 02/M04 A3028 RMK A01 T00201040  RH  065%=      5-min Rain = 0
KGO1 200007Z 31005KT 02/M04 A3028 RMK A01 T00191040  RH  065%=      5-min Rain = 0
KGO1 200008Z 32005KT 02/M04 A3028 RMK A01 T00191040  RH  065%=      5-min Rain = 0
KGO1 200009Z 32005KT 02/M04 A3028 RMK A01 T00191040  RH  065%=      5-min Rain = 0
KGO1 200010Z 31005KT 02/M04 A3028 RMK A01 T00191040  RH  065%=      5-min Rain = 0
KGO1 200011Z 32005KT 02/M04 A3028 RMK A01 T00181040  RH  065%=      5-min Rain = 0
KGO1 200012Z 32006KT 02/M04 A3028 RMK A01 T00171041  RH  065%=      5-min Rain = 0
KGO1 200013Z 32006KT 02/M04 A3028 RMK A01 T00171041  RH  065%=      5-min Rain = 0
KGO1 200014Z 33006KT 02/M04 A3028 RMK A01 T00161042  RH  066%=      5-min Rain = 0
KGO1 200015Z 33006KT 02/M04 A3028 RMK A01 T00151043  RH  066%=      5-min Rain = 0
KGO1 200016Z 33006KT 01/M04 A3028 RMK A01 T00141043  RH  066%=      5-min Rain = 0
KGO1 200017Z 33006KT 01/M04 A3028 RMK A01 T00131044  RH  066%=      5-min Rain = 0
KGO1 200018Z 32006KT 01/M04 A3028 RMK A01 T00121043  RH  067%=      5-min Rain = 0
KGO1 200019Z 32006KT 01/M04 A3028 RMK A01 T00111043  RH  067%=      5-min Rain = 0
KGO1 200020Z 32006KT 01/M04 A3028 RMK A01 T00101044  RH  067%=      5-min Rain = 0
KGO1 200021Z 32006KT 01/M04 A3028 RMK A01 T00101044  RH  067%=      5-min Rain = 0
KGO1 200022Z 32007KT 01/M04 A3028 RMK A01 T00101044  RH  067%=      5-min Rain = 0
KGO1 200023Z 32007KT 01/M04 A3028 RMK A01 T00091044  RH  068%=      5-min Rain = 0
KGO1 200024Z 32006KT 01/M04 A3028 RMK A01 T00081044  RH  068%=      5-min Rain = 0
KGO1 200025Z 32007KT 01/M04 A3028 RMK A01 T00091043  RH  068%=      5-min Rain = 0
KGO1 200026Z 32006KT 01/M04 A3028 RMK A01 T00091043  RH  068%=      5-min Rain = 0
KGO1 200027Z 32006KT 01/M04 A3028 RMK A01 T00091042  RH  068%=      5-min Rain = 0
KGO1 200028Z 31006KT 01/M04 A3028 RMK A01 T00101042  RH  068%=      5-min Rain = 0
KGO1 200029Z 31006KT 01/M04 A3028 RMK A01 T00101042  RH  068%=      5-min Rain = 0
KGO1 200030Z 32006KT 01/M04 A3028 RMK A01 T00101042  RH  068%=      5-min Rain = 0
KGO1 200031Z 32006KT 01/M04 A3028 RMK A01 T00101043  RH  068%=      5-min Rain = 0
KGO1 200032Z 32006KT 01/M04 A3028 RMK A01 T00091043  RH  068%=      5-min Rain = 0
KGO1 200033Z 32007KT 01/M04 A3028 RMK A01 T00081044  RH  068%=      5-min Rain = 0
KGO1 200034Z 32007KT 01/M04 A3028 RMK A01 T00071044  RH  068%=      5-min Rain = 0
KGO1 200035Z 32007KT 01/M04 A3028 RMK A01 T00071044  RH  069%=      5-min Rain = 0
KGO1 200036Z 32007KT 01/M04 A3028 RMK A01 T00061044  RH  069%=      5-min Rain = 0
KGO1 200037Z 31007KT 01/M04 A3028 RMK A01 T00061044  RH  069%=      5-min Rain = 0
KGO1 200038Z 31007KT 01/M04 A3028 RMK A01 T00051044  RH  070%=      5-min Rain = 0
KGO1 200039Z 31006KT 01/M04 A3028 RMK A01 T00051044  RH  070%=      5-min Rain = 0
KGO1 200040Z 31006KT 01/M04 A3028 RMK A01 T00051044  RH  070%=      5-min Rain = 0
KGO1 200041Z 31006KT 00/M05 A3028 RMK A01 T00041045  RH  070%=      5-min Rain = 0
KGO1 200042Z 31006KT 00/M05 A3028 RMK A01 T00031046  RH  070%=      5-min Rain = 0
KGO1 200043Z 30007KT 00/M05 A3028 RMK A01 T00031046  RH  070%=      5-min Rain = 0
KGO1 200044Z 30007KT 00/M05 A3028 RMK A01 T00021046  RH  070%=      5-min Rain = 0
KGO1 200045Z 30007KT 00/M05 A3028 RMK A01 T00011047  RH  070%=      5-min Rain = 0
KGO1 200046Z 30008KT 00/05 A3028 RMK A01 T00-00-48  RH  070%=      5-min Rain = 0
KGO1 200047Z 30008KT M00/M05 A3028 RMK A01 T10011048  RH  071%=      5-min Rain = 0
KGO1 200048Z 30007KT M00/M05 A3028 RMK A01 T10021047  RH  071%=      5-min Rain = 0
KGO1 200049Z 30007KT M00/M05 A3028 RMK A01 T10021047  RH  072%=      5-min Rain = 0
KGO1 200050Z 30007KT M00/M05 A3028 RMK A01 T10021047  RH  072%=      5-min Rain = 0
KGO1 200051Z 30007KT M00/M05 A3028 RMK A01 T10031047  RH  072%=      5-min Rain = 0
KGO1 200052Z 30008KT M00/M05 A3028 RMK A01 T10031047  RH  072%=      5-min Rain = 0
KGO1 200053Z 30008KT M00/M05 A3028 RMK A01 T10041046  RH  073%=      5-min Rain = 0
KGO1 200054Z 30009KT M00/M04 A3028 RMK A01 T10021044  RH  073%=      5-min Rain = 0
KGO1 200055Z 30009KT 00/04 A3028 RMK A01 T00000-43  RH  073%=      5-min Rain = 0
KGO1 200056Z 30008KT 00/M04 A3028 RMK A01 T00021042  RH  072%=      5-min Rain = 0
KGO1 200057Z 31007KT 00/M04 A3028 RMK A01 T00021042  RH  072%=      5-min Rain = 0
KGO1 200058Z 31007KT 00/M04 A3028 RMK A01 T00031043  RH  072%=      5-min Rain = 0
KGO1 200059Z 31007KT 00/M04 A3028 RMK A01 T00021043  RH  071%=      5-min Rain = 0
KGO1 200100Z 30007KT 00/M04 A3028 RMK A01 T00021044  RH  071%=      5-min Rain = 0
KGO1 200101Z 30007KT 00/M04 A3028 RMK A01 T00011044  RH  072%=      5-min Rain = 0
KGO1 200102Z 30007KT 00/M04 A3028 RMK A01 T00021043  RH  072%=      5-min Rain = 0
KGO1 200103Z 30007KT 00/M04 A3027 RMK A01 T00031043  RH  072%=      5-min Rain = 0
KGO1 200104Z 31006KT 00/M04 A3027 RMK A01 T00021043  RH  071%=      5-min Rain = 0
KGO1 200105Z 31006KT 00/M04 A3027 RMK A01 T00021044  RH  071%=      5-min Rain = 0
KGO1 200106Z 32005KT 00/05 A3027 RMK A01 T00-00-46  RH  071%=      5-min Rain = 0
KGO1 200107Z 32005KT M00/M05 A3027 RMK A01 T10031049  RH  071%=      5-min Rain = 0
KGO1 200108Z 32005KT M01/M05 A3027 RMK A01 T10061050  RH  072%=      5-min Rain = 0
KGO1 200109Z 32005KT M01/M05 A3027 RMK A01 T10071050  RH  073%=      5-min Rain = 0
KGO1 200110Z 32006KT M01/M05 A3027 RMK A01 T10091051  RH  073%=      5-min Rain = 0
KGO1 200111Z 32007KT M01/M05 A3027 RMK A01 T10101051  RH  074%=      5-min Rain = 0
KGO1 200112Z 32007KT M01/M05 A3027 RMK A01 T10111051  RH  074%=      5-min Rain = 0
KGO1 200113Z 32006KT M01/M05 A3027 RMK A01 T10111050  RH  075%=      5-min Rain = 0
KGO1 200114Z 33007KT M01/M05 A3027 RMK A01 T10101048  RH  075%=      5-min Rain = 0
KGO1 200115Z 33007KT M01/M05 A3027 RMK A01 T10091048  RH  075%=      5-min Rain = 0
KGO1 200116Z 33006KT M01/M05 A3027 RMK A01 T10091049  RH  074%=      5-min Rain = 0
KGO1 200117Z 33006KT M01/M05 A3027 RMK A01 T10111050  RH  074%=      5-min Rain = 0
KGO1 200118Z 33006KT M01/M05 A3026 RMK A01 T10121051  RH  075%=      5-min Rain = 0
KGO1 200119Z 34006KT M01/M05 A3026 RMK A01 T10131051  RH  075%=      5-min Rain = 0
KGO1 200120Z 34006KT M01/M05 A3026 RMK A01 T10141051  RH  075%=      5-min Rain = 0
KGO1 200121Z 34006KT M01/M05 A3026 RMK A01 T10141051  RH  076%=      5-min Rain = 0
KGO1 200122Z 33006KT M01/M05 A3026 RMK A01 T10141050  RH  076%=      5-min Rain = 0
KGO1 200123Z 33006KT M01/M05 A3026 RMK A01 T10121048  RH  077%=      5-min Rain = 0
KGO1 200124Z 33006KT M01/M05 A3026 RMK A01 T10121048  RH  076%=      5-min Rain = 0
KGO1 200125Z 33005KT M01/M05 A3026 RMK A01 T10121048  RH  076%=      5-min Rain = 0
KGO1 200126Z 33005KT M01/M05 A3026 RMK A01 T10111047  RH  077%=      5-min Rain = 0
KGO1 200127Z 33005KT M01/M05 A3026 RMK A01 T10111047  RH  077%=      5-min Rain = 0
KGO1 200128Z 33005KT M01/M05 A3026 RMK A01 T10111047  RH  077%=      5-min Rain = 0
KGO1 200129Z 33005KT M01/M05 A3026 RMK A01 T10101046  RH  077%=      5-min Rain = 0
KGO1 200130Z 33006KT M01/M05 A3026 RMK A01 T10091045  RH  077%=      5-min Rain = 0
KGO1 200131Z 32006KT M01/M05 A3026 RMK A01 T10081045  RH  076%=      5-min Rain = 0
KGO1 200132Z 32005KT M01/M05 A3026 RMK A01 T10071045  RH  075%=      5-min Rain = 0
KGO1 200133Z 33005KT M01/M05 A3026 RMK A01 T10071045  RH  075%=      5-min Rain = 0
KGO1 200134Z 33005KT M01/M05 A3026 RMK A01 T10071045  RH  075%=      5-min Rain = 0
KGO1 200135Z 32005KT M01/M04 A3026 RMK A01 T10061043  RH  076%=      5-min Rain = 0
KGO1 200136Z 32006KT M00/M04 A3026 RMK A01 T10041042  RH  076%=      5-min Rain = 0
KGO1 200137Z 32005KT M00/M04 A3026 RMK A01 T10041043  RH  075%=      5-min Rain = 0
KGO1 200138Z 32005KT M00/M04 A3026 RMK A01 T10041044  RH  075%=      5-min Rain = 0
KGO1 200139Z 32006KT M01/M04 A3026 RMK A01 T10051044  RH  075%=      5-min Rain = 0
KGO1 200140Z 32005KT M01/M04 A3026 RMK A01 T10051044  RH  075%=      5-min Rain = 0
KGO1 200141Z 32005KT M01/M04 A3026 RMK A01 T10061043  RH  076%=      5-min Rain = 0
KGO1 200142Z 32006KT M01/M04 A3026 RMK A01 T10051043  RH  076%=      5-min Rain = 0
KGO1 200143Z 33005KT M00/M04 A3025 RMK A01 T10031042  RH  075%=      5-min Rain = 0
KGO1 200144Z 33005KT M00/M04 A3025 RMK A01 T10031043  RH  074%=      5-min Rain = 0
KGO1 200145Z 33005KT M00/M04 A3025 RMK A01 T10041044  RH  074%=      5-min Rain = 0
KGO1 200146Z 33005KT M00/M04 A3025 RMK A01 T10041044  RH  074%=      5-min Rain = 0
KGO1 200147Z 33005KT M01/M05 A3025 RMK A01 T10051045  RH  074%=      5-min Rain = 0
KGO1 200148Z 33005KT M01/M05 A3025 RMK A01 T10061047  RH  074%=      5-min Rain = 0
KGO1 200149Z 32005KT M01/M05 A3025 RMK A01 T10091047  RH  075%=      5-min Rain = 0
KGO1 200150Z 32005KT M01/M05 A3025 RMK A01 T10091045  RH  076%=      5-min Rain = 0
KGO1 200151Z 32005KT M01/M05 A3025 RMK A01 T10091045  RH  077%=      5-min Rain = 0
KGO1 200152Z 31005KT M01/M05 A3025 RMK A01 T10101048  RH  075%=      5-min Rain = 0
KGO1 200153Z 31005KT M02/M06 A3025 RMK A01 T10151055  RH  074%=      5-min Rain = 0
KGO1 200154Z 31005KT M02/M05 A3025 RMK A01 T10171054  RH  076%=      5-min Rain = 0
KGO1 200155Z 32006KT M02/M05 A3026 RMK A01 T10181052  RH  078%=      5-min Rain = 0
KGO1 200156Z 32006KT M02/M05 A3026 RMK A01 T10171049  RH  079%=      5-min Rain = 0
KGO1 200157Z 32006KT M02/M05 A3026 RMK A01 T10161048  RH  079%=      5-min Rain = 0
KGO1 200158Z 32006KT M01/M05 A3026 RMK A01 T10141046  RH  079%=      5-min Rain = 0
KGO1 200159Z 32006KT M01/M05 A3026 RMK A01 T10131045  RH  079%=      5-min Rain = 0
KGO1 200200Z 32006KT M01/M04 A3026 RMK A01 T10111044  RH  078%=      5-min Rain = 0
KGO1 200201Z 33006KT M01/M04 A3026 RMK A01 T10101044  RH  078%=      5-min Rain = 0
KGO1 200202Z 33006KT M01/M04 A3026 RMK A01 T10091044  RH  077%=      5-min Rain = 0
KGO1 200203Z 33006KT M01/M04 A3026 RMK A01 T10091044  RH  077%=      5-min Rain = 0
KGO1 200204Z 33006KT M01/M04 A3026 RMK A01 T10091044  RH  077%=      5-min Rain = 0
KGO1 200205Z 33006KT M01/M04 A3026 RMK A01 T10081043  RH  077%=      5-min Rain = 0
KGO1 200206Z 33006KT M01/M04 A3026 RMK A01 T10071043  RH  077%=      5-min Rain = 0
KGO1 200207Z 33006KT M01/M04 A3026 RMK A01 T10071043  RH  076%=      5-min Rain = 0
KGO1 200208Z 34007KT M01/M04 A3026 RMK A01 T10071044  RH  076%=      5-min Rain = 0
KGO1 200209Z 34006KT M01/M04 A3026 RMK A01 T10071044  RH  076%=      5-min Rain = 0
KGO1 200210Z 34006KT M01/M04 A3027 RMK A01 T10071044  RH  077%=      5-min Rain = 0
KGO1 200211Z 34006KT M01/M04 A3027 RMK A01 T10071042  RH  077%=      5-min Rain = 0
KGO1 200212Z 34006KT M01/M04 A3027 RMK A01 T10051041  RH  077%=      5-min Rain = 0
KGO1 200213Z 34006KT M01/M04 A3027 RMK A01 T10051041  RH  077%=      5-min Rain = 0
KGO1 200214Z 33005KT M01/M04 A3027 RMK A01 T10051041  RH  076%=      5-min Rain = 0
KGO1 200215Z 33006KT M01/M04 A3027 RMK A01 T10051041  RH  076%=      5-min Rain = 0
KGO1 200216Z 32006KT M00/M04 A3027 RMK A01 T10041041  RH  076%=      5-min Rain = 0
KGO1 200217Z 31006KT M00/M04 A3027 RMK A01 T10041041  RH  076%=      5-min Rain = 0
KGO1 200218Z 30005KT M01/M04 A3027 RMK A01 T10051041  RH  076%=      5-min Rain = 0
KGO1 200219Z 30006KT M01/M04 A3027 RMK A01 T10061044  RH  076%=      5-min Rain = 0
KGO1 200220Z 31006KT M01/M05 A3027 RMK A01 T10081046  RH  075%=      5-min Rain = 0
KGO1 200221Z 31006KT M01/M05 A3027 RMK A01 T10101047  RH  076%=      5-min Rain = 0
KGO1 200222Z 32006KT M01/M05 A3027 RMK A01 T10111047  RH  076%=      5-min Rain = 0
KGO1 200223Z 32005KT M01/M05 A3027 RMK A01 T10121047  RH  077%=      5-min Rain = 0
KGO1 200224Z 31005KT M01/M05 A3027 RMK A01 T10121047  RH  077%=      5-min Rain = 0
KGO1 200225Z 31005KT M01/M05 A3028 RMK A01 T10121047  RH  077%=      5-min Rain = 0
KGO1 200226Z 30006KT M01/M05 A3028 RMK A01 T10111046  RH  077%=      5-min Rain = 0
KGO1 200227Z 29006KT M01/M05 A3028 RMK A01 T10131048  RH  077%=      5-min Rain = 0
KGO1 200228Z 30007KT M02/M05 A3028 RMK A01 T10151051  RH  077%=      5-min Rain = 0
KGO1 200229Z 30007KT M02/M05 A3028 RMK A01 T10171051  RH  078%=      5-min Rain = 0
KGO1 200230Z 31007KT M02/M05 A3028 RMK A01 T10181050  RH  079%=      5-min Rain = 0
KGO1 200231Z 32006KT M02/M05 A3028 RMK A01 T10181049  RH  079%=      5-min Rain = 0
KGO1 200232Z 32006KT M02/M05 A3028 RMK A01 T10171048  RH  080%=      5-min Rain = 0
KGO1 200233Z 32006KT M02/M05 A3028 RMK A01 T10161046  RH  080%=      5-min Rain = 0
KGO1 200234Z 32006KT M01/M05 A3028 RMK A01 T10141045  RH  080%=      5-min Rain = 0
KGO1 200235Z 32006KT M01/M04 A3027 RMK A01 T10131044  RH  079%=      5-min Rain = 0
KGO1 200236Z 31006KT M01/M04 A3027 RMK A01 T10121044  RH  079%=      5-min Rain = 0
KGO1 200237Z 32006KT M01/M04 A3027 RMK A01 T10111044  RH  078%=      5-min Rain = 0
KGO1 200238Z 32006KT M01/M04 A3027 RMK A01 T10111044  RH  078%=      5-min Rain = 0
KGO1 200239Z 33006KT M01/M05 A3027 RMK A01 T10111046  RH  078%=      5-min Rain = 0
KGO1 200240Z 33006KT M01/M05 A3027 RMK A01 T10141048  RH  077%=      5-min Rain = 0
KGO1 200241Z 33006KT M02/M05 A3027 RMK A01 T10161049  RH  078%=      5-min Rain = 0
KGO1 200242Z 33006KT M02/M05 A3027 RMK A01 T10171049  RH  079%=      5-min Rain = 0
KGO1 200243Z 33006KT M02/M05 A3027 RMK A01 T10181048  RH  080%=      5-min Rain = 0
KGO1 200244Z 33005KT M02/M05 A3027 RMK A01 T10181048  RH  080%=      5-min Rain = 0
KGO1 200245Z 32005KT M02/M05 A3027 RMK A01 T10181048  RH  080%=      5-min Rain = 0
KGO1 200246Z 31004KT M02/M05 A3027 RMK A01 T10181048  RH  080%=      5-min Rain = 0
KGO1 200247Z 31004KT M02/M05 A3027 RMK A01 T10181047  RH  081%=      5-min Rain = 0
KGO1 200248Z 31004KT M02/M05 A3027 RMK A01 T10171046  RH  080%=      5-min Rain = 0
KGO1 200249Z 31004KT M02/M05 A3027 RMK A01 T10171048  RH  080%=      5-min Rain = 0
KGO1 200250Z 30005KT M02/M05 A3027 RMK A01 T10171048  RH  079%=      5-min Rain = 0
KGO1 200251Z 30005KT M02/M05 A3027 RMK A01 T10181049  RH  079%=      5-min Rain = 0
KGO1 200252Z 31005KT M02/M05 A3027 RMK A01 T10181049  RH  080%=      5-min Rain = 0
KGO1 200253Z 32005KT M02/M05 A3027 RMK A01 T10191049  RH  080%=      5-min Rain = 0
KGO1 200254Z 33005KT M02/M05 A3027 RMK A01 T10191048  RH  080%=      5-min Rain = 0
KGO1 200255Z 33005KT M02/M05 A3027 RMK A01 T10181048  RH  080%=      5-min Rain = 0
KGO1 200256Z 32004KT M02/M05 A3027 RMK A01 T10181048  RH  080%=      5-min Rain = 0
KGO1 200257Z 31004KT M02/M05 A3027 RMK A01 T10191049  RH  080%=      5-min Rain = 0
KGO1 200258Z 31004KT M02/M05 A3027 RMK A01 T10201050  RH  080%=      5-min Rain = 0
KGO1 200259Z 31004KT M02/M05 A3027 RMK A01 T10211050  RH  080%=      5-min Rain = 0
KGO1 200300Z 31004KT M02/M05 A3027 RMK A01 T10211050  RH  081%=      5-min Rain = 0
KGO1 200301Z 30005KT M02/M05 A3028 RMK A01 T10211050  RH  081%=      5-min Rain = 0
KGO1 200302Z 29006KT M02/M05 A3028 RMK A01 T10211051  RH  080%=      5-min Rain = 0
KGO1 200303Z 29006KT M02/M05 A3028 RMK A01 T10231053  RH  080%=      5-min Rain = 0
KGO1 200304Z 29006KT M02/M05 A3028 RMK A01 T10241053  RH  080%=      5-min Rain = 0
KGO1 200305Z 29006KT M02/M05 A3028 RMK A01 T10241052  RH  081%=      5-min Rain = 0
KGO1 200306Z 29005KT M02/M05 A3027 RMK A01 T10231050  RH  082%=      5-min Rain = 0
KGO1 200307Z 28005KT M02/M05 A3027 RMK A01 T10221049  RH  082%=      5-min Rain = 0
KGO1 200308Z 28005KT M02/M05 A3027 RMK A01 T10211049  RH  081%=      5-min Rain = 0
KGO1 200309Z 26003KT M02/M05 A3027 RMK A01 T10201050  RH  080%=      5-min Rain = 0
KGO1 200310Z 24004KT M02/M05 A3027 RMK A01 T10221052  RH  080%=      5-min Rain = 0
KGO1 200311Z 25004KT M02/M05 A3027 RMK A01 T10241052  RH  081%=      5-min Rain = 0
KGO1 200312Z 26004KT M02/M05 A3027 RMK A01 T10241051  RH  082%=      5-min Rain = 0
KGO1 200313Z 27004KT M02/M05 A3027 RMK A01 T10221047  RH  083%=      5-min Rain = 0
KGO1 200314Z 27004KT M02/M05 A3027 RMK A01 T10191045  RH  083%=      5-min Rain = 0
KGO1 200315Z 29004KT M02/M04 A3027 RMK A01 T10171044  RH  082%=      5-min Rain = 0
KGO1 200316Z 30003KT M02/M04 A3027 RMK A01 T10161044  RH  081%=      5-min Rain = 0
KGO1 200317Z 31003KT M02/M04 A3027 RMK A01 T10151044  RH  080%=      5-min Rain = 0
KGO1 200318Z 32003KT M02/M05 A3027 RMK A01 T10151046  RH  079%=      5-min Rain = 0
KGO1 200319Z 32003KT M02/M05 A3027 RMK A01 T10181050  RH  079%=      5-min Rain = 0
KGO1 200320Z 31003KT M02/M05 A3026 RMK A01 T10211052  RH  079%=      5-min Rain = 0
KGO1 200321Z 30003KT M02/M05 A3026 RMK A01 T10221050  RH  081%=      5-min Rain = 0
KGO1 200322Z 30003KT M02/M05 A3027 RMK A01 T10221049  RH  082%=      5-min Rain = 0
KGO1 200323Z 30003KT M02/M05 A3027 RMK A01 T10221048  RH  082%=      5-min Rain = 0
KGO1 200324Z 30003KT M02/M05 A3027 RMK A01 T10221048  RH  082%=      5-min Rain = 0
KGO1 200325Z 30003KT M02/M05 A3027 RMK A01 T10221048  RH  082%=      5-min Rain = 0
KGO1 200326Z 29003KT M02/M05 A3027 RMK A01 T10211048  RH  082%=      5-min Rain = 0
KGO1 200327Z 29003KT M02/M05 A3027 RMK A01 T10211048  RH  082%=      5-min Rain = 0
KGO1 200328Z 29003KT M02/M05 A3026 RMK A01 T10201046  RH  082%=      5-min Rain = 0
KGO1 200329Z 28002KT M02/M05 A3026 RMK A01 T10191046  RH  082%=      5-min Rain = 0
KGO1 200330Z 27003KT M02/M05 A3026 RMK A01 T10191047  RH  081%=      5-min Rain = 0
KGO1 200331Z 27004KT M02/M05 A3026 RMK A01 T10191047  RH  081%=      5-min Rain = 0
KGO1 200332Z 28004KT M02/M04 A3026 RMK A01 T10171044  RH  082%=      5-min Rain = 0
KGO1 200333Z 28004KT M02/M05 A3026 RMK A01 T10151045  RH  080%=      5-min Rain = 0
KGO1 200334Z 28004KT M02/M05 A3026 RMK A01 T10171049  RH  079%=      5-min Rain = 0
KGO1 200335Z 29004KT M02/M05 A3026 RMK A01 T10191051  RH  079%=      5-min Rain = 0
KGO1 200336Z 30004KT M02/M05 A3027 RMK A01 T10211051  RH  080%=      5-min Rain = 0
KGO1 200337Z 30004KT M02/M05 A3027 RMK A01 T10231053  RH  080%=      5-min Rain = 0
KGO1 200338Z 30004KT M02/M05 A3027 RMK A01 T10241053  RH  081%=      5-min Rain = 0
KGO1 200339Z 29004KT M03/M06 A3027 RMK A01 T10261055  RH  081%=      5-min Rain = 0
KGO1 200340Z 28004KT M03/M06 A3027 RMK A01 T10271055  RH  081%=      5-min Rain = 0
KGO1 200341Z 28004KT M03/M05 A3027 RMK A01 T10281054  RH  082%=      5-min Rain = 0
KGO1 200342Z 27004KT M03/M05 A3027 RMK A01 T10271053  RH  082%=      5-min Rain = 0
KGO1 200343Z 27005KT M03/M05 A3026 RMK A01 T10261052  RH  083%=      5-min Rain = 0
KGO1 200344Z 27004KT M03/M05 A3026 RMK A01 T10251050  RH  083%=      5-min Rain = 0
KGO1 200345Z 29004KT M02/M05 A3026 RMK A01 T10241049  RH  083%=      5-min Rain = 0
KGO1 200346Z 30004KT M02/M05 A3026 RMK A01 T10241050  RH  082%=      5-min Rain = 0
KGO1 200347Z 31004KT M02/M05 A3026 RMK A01 T10231050  RH  082%=      5-min Rain = 0
KGO1 200348Z 30003KT M03/M05 A3026 RMK A01 T10261053  RH  081%=      5-min Rain = 0
KGO1 200349Z 29004KT M03/M06 A3026 RMK A01 T10281055  RH  081%=      5-min Rain = 0
KGO1 200350Z 28004KT M03/M05 A3026 RMK A01 T10281054  RH  082%=      5-min Rain = 0
KGO1 200351Z 28003KT M03/M05 A3026 RMK A01 T10291054  RH  083%=      5-min Rain = 0
KGO1 200352Z 28003KT M03/M05 A3026 RMK A01 T10291053  RH  084%=      5-min Rain = 0
KGO1 200353Z 28003KT M03/M05 A3026 RMK A01 T10291053  RH  083%=      5-min Rain = 0
KGO1 200354Z 27003KT M03/M05 A3026 RMK A01 T10281052  RH  084%=      5-min Rain = 0
KGO1 200355Z 27003KT M03/M05 A3026 RMK A01 T10261050  RH  084%=      5-min Rain = 0
KGO1 200356Z 27003KT M03/M05 A3026 RMK A01 T10251050  RH  083%=      5-min Rain = 0
KGO1 200357Z 28003KT M03/M05 A3026 RMK A01 T10251051  RH  082%=      5-min Rain = 0
KGO1 200358Z 28003KT M03/M05 A3026 RMK A01 T10251052  RH  082%=      5-min Rain = 0
KGO1 200359Z 29003KT M03/M05 A3026 RMK A01 T10251051  RH  082%=      5-min Rain = 0
KGO1 200400Z 29003KT M03/M05 A3026 RMK A01 T10251052  RH  082%=      5-min Rain = 0
KGO1 200401Z 29003KT M03/M05 A3026 RMK A01 T10251052  RH  082%=      5-min Rain = 0
KGO1 200402Z 29003KT M03/M05 A3026 RMK A01 T10251054  RH  081%=      5-min Rain = 0
KGO1 200403Z 29002KT M03/M06 A3026 RMK A01 T10271055  RH  081%=      5-min Rain = 0
KGO1 200404Z 29002KT M03/M06 A3026 RMK A01 T10281055  RH  082%=      5-min Rain = 0
KGO1 200405Z 29001KT M03/M06 A3026 RMK A01 T10291055  RH  083%=      5-min Rain = 0
KGO1 200406Z 29000KT M03/M05 A3025 RMK A01 T10291054  RH  083%=      5-min Rain = 0
KGO1 200407Z 00000KT M03/M05 A3025 RMK A01 T10291054  RH  083%=      5-min Rain = 0
KGO1 200408Z 18000KT M03/M05 A3025 RMK A01 T10291054  RH  083%=      5-min Rain = 0
KGO1 200409Z 18002KT M03/M05 A3025 RMK A01 T10301054  RH  084%=      5-min Rain = 0
KGO1 200410Z 18000KT M03/M05 A3024 RMK A01 T10301053  RH  084%=      5-min Rain = 0
KGO1 200411Z 19000KT M03/M05 A3024 RMK A01 T10291052  RH  084%=      5-min Rain = 0
KGO1 200412Z 20003KT M03/M05 A3024 RMK A01 T10281051  RH  084%=      5-min Rain = 0
KGO1 200413Z 21003KT M03/M05 A3025 RMK A01 T10271050  RH  084%=      5-min Rain = 0
KGO1 200414Z 21003KT M02/M05 A3025 RMK A01 T10241047  RH  084%=      5-min Rain = 0
KGO1 200415Z 22004KT M02/M05 A3025 RMK A01 T10231049  RH  082%=      5-min Rain = 0
KGO1 200416Z 23003KT M02/M05 A3025 RMK A01 T10221050  RH  081%=      5-min Rain = 0
KGO1 200417Z 23003KT M02/M05 A3025 RMK A01 T10221049  RH  082%=      5-min Rain = 0
KGO1 200418Z 23002KT M02/M05 A3025 RMK A01 T10191046  RH  082%=      5-min Rain = 0
KGO1 200419Z 23002KT M02/M04 A3025 RMK A01 T10171044  RH  081%=      5-min Rain = 0
KGO1 200420Z 23001KT M02/M05 A3025 RMK A01 T10161046  RH  080%=      5-min Rain = 0
KGO1 200421Z 23001KT M02/M05 A3025 RMK A01 T10171049  RH  079%=      5-min Rain = 0
KGO1 200422Z 22002KT M02/M05 A3026 RMK A01 T10191051  RH  079%=      5-min Rain = 0
KGO1 200423Z 22003KT M02/M05 A3026 RMK A01 T10211053  RH  079%=      5-min Rain = 0
KGO1 200424Z 21004KT M02/M05 A3026 RMK A01 T10231054  RH  079%=      5-min Rain = 0
KGO1 200425Z 22003KT M02/M05 A3026 RMK A01 T10241054  RH  080%=      5-min Rain = 0
KGO1 200426Z 20003KT M02/M05 A3025 RMK A01 T10241052  RH  081%=      5-min Rain = 0
KGO1 200427Z 19003KT M03/M05 A3025 RMK A01 T10251052  RH  081%=      5-min Rain = 0
KGO1 200428Z 18003KT M03/M05 A3025 RMK A01 T10251053  RH  082%=      5-min Rain = 0
KGO1 200429Z 18003KT M03/M05 A3025 RMK A01 T10261052  RH  082%=      5-min Rain = 0
KGO1 200430Z 18002KT M03/M05 A3025 RMK A01 T10261052  RH  082%=      5-min Rain = 0
KGO1 200431Z 18003KT M03/M05 A3026 RMK A01 T10261052  RH  082%=      5-min Rain = 0
KGO1 200432Z 19004KT M03/M05 A3026 RMK A01 T10261052  RH  083%=      5-min Rain = 0
KGO1 200433Z 19005KT M03/M05 A3027 RMK A01 T10251049  RH  083%=      5-min Rain = 0
KGO1 200434Z 19005KT M02/M05 A3027 RMK A01 T10211047  RH  083%=      5-min Rain = 0
KGO1 200435Z 20005KT M02/M05 A3027 RMK A01 T10211050  RH  081%=      5-min Rain = 0
KGO1 200436Z 20005KT M02/M05 A3027 RMK A01 T10231053  RH  080%=      5-min Rain = 0
KGO1 200437Z 20005KT M02/M05 A3027 RMK A01 T10241053  RH  081%=      5-min Rain = 0
KGO1 200438Z 20005KT M02/M05 A3027 RMK A01 T10241051  RH  082%=      5-min Rain = 0
KGO1 200439Z 20005KT M02/M05 A3027 RMK A01 T10231050  RH  082%=      5-min Rain = 0
KGO1 200440Z 19006KT M02/M05 A3026 RMK A01 T10231050  RH  081%=      5-min Rain = 0
KGO1 200441Z 19006KT M02/M05 A3027 RMK A01 T10231051  RH  081%=      5-min Rain = 0
KGO1 200442Z 19006KT M02/M05 A3027 RMK A01 T10231052  RH  081%=      5-min Rain = 0
KGO1 200443Z 19006KT M03/M05 A3027 RMK A01 T10251053  RH  081%=      5-min Rain = 0
KGO1 200444Z 20006KT M03/M05 A3027 RMK A01 T10251054  RH  081%=      5-min Rain = 0
KGO1 200445Z 20005KT M03/M05 A3027 RMK A01 T10261053  RH  082%=      5-min Rain = 0
KGO1 200446Z 20005KT M03/M05 A3027 RMK A01 T10251052  RH  082%=      5-min Rain = 0
KGO1 200447Z 20005KT M02/M05 A3027 RMK A01 T10241051  RH  082%=      5-min Rain = 0
KGO1 200448Z 19005KT M02/M05 A3027 RMK A01 T10231050  RH  082%=      5-min Rain = 0
KGO1 200449Z 19005KT M02/M05 A3027 RMK A01 T10231051  RH  081%=      5-min Rain = 0
KGO1 200450Z 19006KT M02/M05 A3027 RMK A01 T10231052  RH  080%=      5-min Rain = 0
KGO1 200451Z 19007KT M02/M05 A3027 RMK A01 T10241054  RH  080%=      5-min Rain = 0
KGO1 200452Z 19006KT M03/M05 A3026 RMK A01 T10251054  RH  081%=      5-min Rain = 0
KGO1 200453Z 19006KT M03/M05 A3026 RMK A01 T10251053  RH  081%=      5-min Rain = 0
KGO1 200454Z 18006KT M03/M05 A3026 RMK A01 T10251053  RH  081%=      5-min Rain = 0
KGO1 200455Z 18007KT M02/M05 A3026 RMK A01 T10241051  RH  081%=      5-min Rain = 0
KGO1 200456Z 18006KT M02/M05 A3026 RMK A01 T10231050  RH  081%=      5-min Rain = 0
KGO1 200457Z 18006KT M02/M05 A3026 RMK A01 T10221050  RH  081%=      5-min Rain = 0
KGO1 200458Z 18006KT M02/M05 A3026 RMK A01 T10211049  RH  081%=      5-min Rain = 0
KGO1 200459Z 18006KT M02/M05 A3026 RMK A01 T10191049  RH  080%=      5-min Rain = 0
KGO1 200500Z 18006KT M02/M05 A3027 RMK A01 T10191050  RH  080%=      5-min Rain = 0
KGO1 200501Z 17006KT M02/M05 A3027 RMK A01 T10191050  RH  079%=      5-min Rain = 0
KGO1 200502Z 17007KT M02/M05 A3027 RMK A01 T10191052  RH  078%=      5-min Rain = 0
KGO1 200503Z 17007KT M02/M05 A3027 RMK A01 T10201053  RH  078%=      5-min Rain = 0
KGO1 200504Z 17008KT M02/M06 A3027 RMK A01 T10211055  RH  078%=      5-min Rain = 0
KGO1 200505Z 17008KT M02/M06 A3027 RMK A01 T10231055  RH  078%=      5-min Rain = 0
KGO1 200506Z 17007KT M02/M05 A3028 RMK A01 T10231054  RH  079%=      5-min Rain = 0
KGO1 200507Z 17007KT M02/M05 A3028 RMK A01 T10231052  RH  080%=      5-min Rain = 0
KGO1 200508Z 18006KT M02/M05 A3028 RMK A01 T10221050  RH  081%=      5-min Rain = 0
KGO1 200509Z 18006KT M02/M05 A3028 RMK A01 T10211050  RH  081%=      5-min Rain = 0
KGO1 200510Z 18005KT M02/M05 A3028 RMK A01 T10201050  RH  080%=      5-min Rain = 0
KGO1 200511Z 18004KT M02/M05 A3028 RMK A01 T10191049  RH  080%=      5-min Rain = 0
KGO1 200512Z 18005KT M02/M05 A3028 RMK A01 T10191050  RH  080%=      5-min Rain = 0
KGO1 200513Z 17005KT M02/M05 A3028 RMK A01 T10191050  RH  079%=      5-min Rain = 0
KGO1 200514Z 17006KT M02/M05 A3028 RMK A01 T10191051  RH  079%=      5-min Rain = 0
KGO1 200515Z 17007KT M02/M05 A3028 RMK A01 T10201052  RH  079%=      5-min Rain = 0
KGO1 200516Z 17007KT M02/M05 A3028 RMK A01 T10211053  RH  078%=      5-min Rain = 0
KGO1 200517Z 17007KT M02/M06 A3028 RMK A01 T10231056  RH  078%=      5-min Rain = 0
KGO1 200518Z 17007KT M02/M06 A3029 RMK A01 T10241055  RH  079%=      5-min Rain = 0
KGO1 200519Z 17007KT M02/M05 A3029 RMK A01 T10241054  RH  080%=      5-min Rain = 0
KGO1 200520Z 17006KT M02/M05 A3029 RMK A01 T10241052  RH  081%=      5-min Rain = 0
KGO1 200521Z 17006KT M02/M05 A3029 RMK A01 T10231051  RH  081%=      5-min Rain = 0
KGO1 200522Z 17006KT M02/M05 A3029 RMK A01 T10221051  RH  081%=      5-min Rain = 0
KGO1 200523Z 17006KT M02/M05 A3029 RMK A01 T10221051  RH  080%=      5-min Rain = 0
KGO1 200524Z 16005KT M02/M05 A3029 RMK A01 T10221052  RH  080%=      5-min Rain = 0
KGO1 200525Z 16005KT M02/M05 A3028 RMK A01 T10221051  RH  080%=      5-min Rain = 0
KGO1 200526Z 16005KT M02/M05 A3028 RMK A01 T10211050  RH  080%=      5-min Rain = 0
KGO1 200527Z 15005KT M02/M05 A3028 RMK A01 T10201050  RH  080%=      5-min Rain = 0
KGO1 200528Z 15006KT M02/M05 A3028 RMK A01 T10201050  RH  080%=      5-min Rain = 0
KGO1 200529Z 15007KT M02/M05 A3028 RMK A01 T10191049  RH  080%=      5-min Rain = 0
KGO1 200530Z 15007KT M02/M05 A3028 RMK A01 T10181049  RH  080%=      5-min Rain = 0
KGO1 200531Z 15007KT M02/M05 A3028 RMK A01 T10201052  RH  079%=      5-min Rain = 0
KGO1 200532Z 15006KT M02/M06 A3029 RMK A01 T10231056  RH  078%=      5-min Rain = 0
KGO1 200533Z 15006KT M03/M06 A3029 RMK A01 T10251056  RH  079%=      5-min Rain = 0
KGO1 200534Z 15007KT M03/M06 A3029 RMK A01 T10261056  RH  080%=      5-min Rain = 0
KGO1 200535Z 15007KT M03/M06 A3029 RMK A01 T10271055  RH  081%=      5-min Rain = 0
KGO1 200536Z 15007KT M03/M05 A3029 RMK A01 T10261054  RH  081%=      5-min Rain = 0
KGO1 200537Z 15007KT M03/M05 A3029 RMK A01 T10261054  RH  081%=      5-min Rain = 0
KGO1 200538Z 15006KT M03/M05 A3029 RMK A01 T10261054  RH  082%=      5-min Rain = 0
KGO1 200539Z 16006KT M03/M05 A3029 RMK A01 T10261053  RH  082%=      5-min Rain = 0
KGO1 200540Z 17005KT M03/M05 A3029 RMK A01 T10261053  RH  082%=      5-min Rain = 0
KGO1 200541Z 16006KT M03/M05 A303 RMK A01 T10261054  RH  081%=      5-min Rain = 0
KGO1 200542Z 15006KT M03/M06 A303 RMK A01 T10271055  RH  081%=      5-min Rain = 0
KGO1 200543Z 14005KT M03/M06 A303 RMK A01 T10281056  RH  081%=      5-min Rain = 0
KGO1 200544Z 15005KT M03/M05 A303 RMK A01 T10291054  RH  082%=      5-min Rain = 0
KGO1 200545Z 16005KT M03/M06 A303 RMK A01 T10311058  RH  082%=      5-min Rain = 0
KGO1 200546Z 16005KT M03/M06 A303 RMK A01 T10341062  RH  081%=      5-min Rain = 0
KGO1 200547Z 17006KT M04/M06 A3029 RMK A01 T10361060  RH  083%=      5-min Rain = 0
KGO1 200548Z 17007KT M04/M06 A3029 RMK A01 T10361058  RH  085%=      5-min Rain = 0
KGO1 200549Z 17006KT M03/M06 A3029 RMK A01 T10341056  RH  085%=      5-min Rain = 0
KGO1 200550Z 18007KT M03/M06 A3029 RMK A01 T10331055  RH  085%=      5-min Rain = 0
KGO1 200551Z 18007KT M03/M05 A3029 RMK A01 T10321054  RH  085%=      5-min Rain = 0
KGO1 200552Z 18007KT M03/M06 A3029 RMK A01 T10321055  RH  084%=      5-min Rain = 0
KGO1 200553Z 17007KT M03/M06 A3029 RMK A01 T10321055  RH  084%=      5-min Rain = 0
KGO1 200554Z 17007KT M03/M06 A3029 RMK A01 T10321055  RH  084%=      5-min Rain = 0
KGO1 200555Z 17008KT M03/M06 A3029 RMK A01 T10321055  RH  084%=      5-min Rain = 0
KGO1 200556Z 18008KT M03/M06 A303 RMK A01 T10321055  RH  084%=      5-min Rain = 0
KGO1 200557Z 18008KT M03/M05 A303 RMK A01 T10321054  RH  085%=      5-min Rain = 0
KGO1 200558Z 18008KT M03/M05 A303 RMK A01 T10311053  RH  085%=      5-min Rain = 0
KGO1 200559Z 18008KT M03/M05 A303 RMK A01 T10311053  RH  085%=      5-min Rain = 0

Page generated in 0.1223 seconds.